<?xml version="1.0" encoding="UTF-8" standalone="no" ?>
<gpx xmlns="http://www.topografix.com/GPX/1/1" xmlns:xsi="http://www.w3.org/2001/XMLSchema-instance" xsi:schemaLocation="http://www.topografix.com/GPX/1/1 http://www.topografix.com/GPX/1/1/gpx.xsd" version="1.1" creator="VisuGPX - https://www.visugpx.com">
  <metadata>
    <name>CHENOVE Marche du vendredi 31 aout 2012</name>
    <desc><![CDATA[Le nouveau sentier Bombi sous la conduite de Marcelle]]></desc>
  </metadata>
  <trk>
    <name><![CDATA[CHENOVE Marche du vendredi 31 aout 2012_1]]></name>
    <trkseg>
      <trkpt lat="47.29227" lon="5.0066">
        <ele>251.231</ele>
        <time>2012-08-31T07:34:23Z</time>
      </trkpt>
      <trkpt lat="47.29217" lon="5.00638">
        <ele>258.978</ele>
        <time>2012-08-31T07:34:34Z</time>
      </trkpt>
      <trkpt lat="47.2921" lon="5.00638">
        <ele>262.332</ele>
        <time>2012-08-31T07:34:45Z</time>
      </trkpt>
      <trkpt lat="47.2921" lon="5.00622">
        <ele>267.04</ele>
        <time>2012-08-31T07:34:56Z</time>
      </trkpt>
      <trkpt lat="47.2921" lon="5.00627">
        <ele>267.062</ele>
        <time>2012-08-31T07:35:07Z</time>
      </trkpt>
      <trkpt lat="47.29215" lon="5.00628">
        <ele>266.684</ele>
        <time>2012-08-31T07:35:18Z</time>
      </trkpt>
      <trkpt lat="47.29213" lon="5.00635">
        <ele>266.333</ele>
        <time>2012-08-31T07:35:29Z</time>
      </trkpt>
      <trkpt lat="47.29223" lon="5.00638">
        <ele>266.815</ele>
        <time>2012-08-31T07:35:40Z</time>
      </trkpt>
      <trkpt lat="47.2923" lon="5.00622">
        <ele>267.107</ele>
        <time>2012-08-31T07:35:51Z</time>
      </trkpt>
      <trkpt lat="47.2924" lon="5.0061">
        <ele>274.577</ele>
        <time>2012-08-31T07:36:02Z</time>
      </trkpt>
      <trkpt lat="47.2925" lon="5.00593">
        <ele>278.467</ele>
        <time>2012-08-31T07:36:13Z</time>
      </trkpt>
      <trkpt lat="47.29257" lon="5.00578">
        <ele>287.182</ele>
        <time>2012-08-31T07:36:24Z</time>
      </trkpt>
      <trkpt lat="47.29267" lon="5.00563">
        <ele>297.296</ele>
        <time>2012-08-31T07:36:35Z</time>
      </trkpt>
      <trkpt lat="47.29273" lon="5.00552">
        <ele>313.008</ele>
        <time>2012-08-31T07:36:46Z</time>
      </trkpt>
      <trkpt lat="47.29278" lon="5.0054">
        <ele>323.498</ele>
        <time>2012-08-31T07:36:57Z</time>
      </trkpt>
      <trkpt lat="47.29285" lon="5.00525">
        <ele>323.849</ele>
        <time>2012-08-31T07:37:08Z</time>
      </trkpt>
      <trkpt lat="47.29285" lon="5.005">
        <ele>320.514</ele>
        <time>2012-08-31T07:37:19Z</time>
      </trkpt>
      <trkpt lat="47.2929" lon="5.00477">
        <ele>318.828</ele>
        <time>2012-08-31T07:37:30Z</time>
      </trkpt>
      <trkpt lat="47.29293" lon="5.00452">
        <ele>312.97</ele>
        <time>2012-08-31T07:37:41Z</time>
      </trkpt>
      <trkpt lat="47.29295" lon="5.00433">
        <ele>315.451</ele>
        <time>2012-08-31T07:37:52Z</time>
      </trkpt>
      <trkpt lat="47.29302" lon="5.00417">
        <ele>317.403</ele>
        <time>2012-08-31T07:38:03Z</time>
      </trkpt>
      <trkpt lat="47.293" lon="5.0041">
        <ele>315.449</ele>
        <time>2012-08-31T07:38:14Z</time>
      </trkpt>
      <trkpt lat="47.2931" lon="5.00392">
        <ele>312.083</ele>
        <time>2012-08-31T07:38:25Z</time>
      </trkpt>
      <trkpt lat="47.29318" lon="5.00392">
        <ele>304.317</ele>
        <time>2012-08-31T07:38:36Z</time>
      </trkpt>
      <trkpt lat="47.2933" lon="5.00395">
        <ele>304.011</ele>
        <time>2012-08-31T07:38:47Z</time>
      </trkpt>
      <trkpt lat="47.29337" lon="5.0038">
        <ele>305.732</ele>
        <time>2012-08-31T07:38:58Z</time>
      </trkpt>
      <trkpt lat="47.29345" lon="5.00368">
        <ele>306.241</ele>
        <time>2012-08-31T07:39:09Z</time>
      </trkpt>
      <trkpt lat="47.29362" lon="5.00373">
        <ele>305.537</ele>
        <time>2012-08-31T07:39:20Z</time>
      </trkpt>
      <trkpt lat="47.29375" lon="5.00377">
        <ele>305.48</ele>
        <time>2012-08-31T07:39:31Z</time>
      </trkpt>
      <trkpt lat="47.29385" lon="5.00372">
        <ele>304.376</ele>
        <time>2012-08-31T07:39:42Z</time>
      </trkpt>
      <trkpt lat="47.29398" lon="5.00372">
        <ele>298.057</ele>
        <time>2012-08-31T07:39:53Z</time>
      </trkpt>
      <trkpt lat="47.29412" lon="5.00367">
        <ele>299.903</ele>
        <time>2012-08-31T07:40:04Z</time>
      </trkpt>
      <trkpt lat="47.29425" lon="5.00358">
        <ele>298.418</ele>
        <time>2012-08-31T07:40:15Z</time>
      </trkpt>
      <trkpt lat="47.29435" lon="5.00358">
        <ele>292.216</ele>
        <time>2012-08-31T07:40:26Z</time>
      </trkpt>
      <trkpt lat="47.29448" lon="5.00362">
        <ele>290.235</ele>
        <time>2012-08-31T07:40:37Z</time>
      </trkpt>
      <trkpt lat="47.29463" lon="5.00363">
        <ele>290.045</ele>
        <time>2012-08-31T07:40:48Z</time>
      </trkpt>
      <trkpt lat="47.29478" lon="5.0036">
        <ele>290.516</ele>
        <time>2012-08-31T07:40:59Z</time>
      </trkpt>
      <trkpt lat="47.29487" lon="5.00347">
        <ele>293.061</ele>
        <time>2012-08-31T07:41:10Z</time>
      </trkpt>
      <trkpt lat="47.29492" lon="5.0033">
        <ele>293.985</ele>
        <time>2012-08-31T07:41:21Z</time>
      </trkpt>
      <trkpt lat="47.295" lon="5.00312">
        <ele>292.802</ele>
        <time>2012-08-31T07:41:32Z</time>
      </trkpt>
      <trkpt lat="47.29505" lon="5.00293">
        <ele>293.222</ele>
        <time>2012-08-31T07:41:43Z</time>
      </trkpt>
      <trkpt lat="47.29507" lon="5.00272">
        <ele>291.644</ele>
        <time>2012-08-31T07:41:54Z</time>
      </trkpt>
      <trkpt lat="47.29512" lon="5.00252">
        <ele>292.986</ele>
        <time>2012-08-31T07:42:05Z</time>
      </trkpt>
      <trkpt lat="47.29515" lon="5.00232">
        <ele>296.143</ele>
        <time>2012-08-31T07:42:16Z</time>
      </trkpt>
      <trkpt lat="47.29528" lon="5.00218">
        <ele>293.152</ele>
        <time>2012-08-31T07:42:27Z</time>
      </trkpt>
      <trkpt lat="47.29542" lon="5.00208">
        <ele>291.705</ele>
        <time>2012-08-31T07:42:38Z</time>
      </trkpt>
      <trkpt lat="47.29553" lon="5.002">
        <ele>292.07</ele>
        <time>2012-08-31T07:42:49Z</time>
      </trkpt>
      <trkpt lat="47.29565" lon="5.00182">
        <ele>292.247</ele>
        <time>2012-08-31T07:43:00Z</time>
      </trkpt>
      <trkpt lat="47.29575" lon="5.00168">
        <ele>294.13</ele>
        <time>2012-08-31T07:43:11Z</time>
      </trkpt>
      <trkpt lat="47.29583" lon="5.00153">
        <ele>296.335</ele>
        <time>2012-08-31T07:43:22Z</time>
      </trkpt>
      <trkpt lat="47.29592" lon="5.00132">
        <ele>295.528</ele>
        <time>2012-08-31T07:43:33Z</time>
      </trkpt>
      <trkpt lat="47.29598" lon="5.00113">
        <ele>297.772</ele>
        <time>2012-08-31T07:43:44Z</time>
      </trkpt>
      <trkpt lat="47.29603" lon="5.00095">
        <ele>298.797</ele>
        <time>2012-08-31T07:43:55Z</time>
      </trkpt>
      <trkpt lat="47.29608" lon="5.00078">
        <ele>299.457</ele>
        <time>2012-08-31T07:44:06Z</time>
      </trkpt>
      <trkpt lat="47.29618" lon="5.00067">
        <ele>297.608</ele>
        <time>2012-08-31T07:44:17Z</time>
      </trkpt>
      <trkpt lat="47.29632" lon="5.00067">
        <ele>293.958</ele>
        <time>2012-08-31T07:44:28Z</time>
      </trkpt>
      <trkpt lat="47.2964" lon="5.00067">
        <ele>291.053</ele>
        <time>2012-08-31T07:44:39Z</time>
      </trkpt>
      <trkpt lat="47.29655" lon="5.0007">
        <ele>289.008</ele>
        <time>2012-08-31T07:44:50Z</time>
      </trkpt>
      <trkpt lat="47.2967" lon="5.00073">
        <ele>287.47</ele>
        <time>2012-08-31T07:45:01Z</time>
      </trkpt>
      <trkpt lat="47.29685" lon="5.0008">
        <ele>287.201</ele>
        <time>2012-08-31T07:45:12Z</time>
      </trkpt>
      <trkpt lat="47.297" lon="5.00083">
        <ele>286.914</ele>
        <time>2012-08-31T07:45:23Z</time>
      </trkpt>
      <trkpt lat="47.29713" lon="5.00088">
        <ele>287.191</ele>
        <time>2012-08-31T07:45:34Z</time>
      </trkpt>
      <trkpt lat="47.2973" lon="5.00092">
        <ele>285.377</ele>
        <time>2012-08-31T07:45:45Z</time>
      </trkpt>
      <trkpt lat="47.29743" lon="5.00093">
        <ele>286.362</ele>
        <time>2012-08-31T07:45:56Z</time>
      </trkpt>
      <trkpt lat="47.29757" lon="5.00098">
        <ele>287.588</ele>
        <time>2012-08-31T07:46:07Z</time>
      </trkpt>
      <trkpt lat="47.2977" lon="5.00103">
        <ele>288.531</ele>
        <time>2012-08-31T07:46:18Z</time>
      </trkpt>
      <trkpt lat="47.29785" lon="5.00107">
        <ele>289.145</ele>
        <time>2012-08-31T07:46:29Z</time>
      </trkpt>
      <trkpt lat="47.29798" lon="5.00108">
        <ele>290.6</ele>
        <time>2012-08-31T07:46:40Z</time>
      </trkpt>
      <trkpt lat="47.29812" lon="5.00112">
        <ele>289.586</ele>
        <time>2012-08-31T07:46:51Z</time>
      </trkpt>
      <trkpt lat="47.29827" lon="5.00115">
        <ele>288.29</ele>
        <time>2012-08-31T07:47:02Z</time>
      </trkpt>
      <trkpt lat="47.2984" lon="5.00118">
        <ele>289.422</ele>
        <time>2012-08-31T07:47:13Z</time>
      </trkpt>
      <trkpt lat="47.29853" lon="5.00125">
        <ele>289.589</ele>
        <time>2012-08-31T07:47:24Z</time>
      </trkpt>
      <trkpt lat="47.29867" lon="5.0013">
        <ele>289.617</ele>
        <time>2012-08-31T07:47:35Z</time>
      </trkpt>
      <trkpt lat="47.2988" lon="5.0013">
        <ele>291.307</ele>
        <time>2012-08-31T07:47:46Z</time>
      </trkpt>
      <trkpt lat="47.2989" lon="5.0013">
        <ele>291.812</ele>
        <time>2012-08-31T07:47:57Z</time>
      </trkpt>
      <trkpt lat="47.29903" lon="5.00128">
        <ele>291.875</ele>
        <time>2012-08-31T07:48:08Z</time>
      </trkpt>
      <trkpt lat="47.29917" lon="5.00128">
        <ele>291.643</ele>
        <time>2012-08-31T07:48:19Z</time>
      </trkpt>
      <trkpt lat="47.29918" lon="5.00118">
        <ele>294.341</ele>
        <time>2012-08-31T07:48:30Z</time>
      </trkpt>
      <trkpt lat="47.29913" lon="5.00103">
        <ele>297.692</ele>
        <time>2012-08-31T07:48:41Z</time>
      </trkpt>
      <trkpt lat="47.29908" lon="5.00088">
        <ele>301.583</ele>
        <time>2012-08-31T07:48:52Z</time>
      </trkpt>
      <trkpt lat="47.29908" lon="5.00073">
        <ele>303.798</ele>
        <time>2012-08-31T07:49:03Z</time>
      </trkpt>
      <trkpt lat="47.2991" lon="5.00063">
        <ele>308.132</ele>
        <time>2012-08-31T07:49:14Z</time>
      </trkpt>
      <trkpt lat="47.29913" lon="5.00047">
        <ele>309.711</ele>
        <time>2012-08-31T07:49:25Z</time>
      </trkpt>
      <trkpt lat="47.29917" lon="5.00035">
        <ele>313.719</ele>
        <time>2012-08-31T07:49:36Z</time>
      </trkpt>
      <trkpt lat="47.2992" lon="5.00023">
        <ele>316.53</ele>
        <time>2012-08-31T07:49:47Z</time>
      </trkpt>
      <trkpt lat="47.29925" lon="5.00005">
        <ele>318.525</ele>
        <time>2012-08-31T07:49:58Z</time>
      </trkpt>
      <trkpt lat="47.29928" lon="5">
        <ele>318.666</ele>
        <time>2012-08-31T07:50:09Z</time>
      </trkpt>
      <trkpt lat="47.29933" lon="4.99993">
        <ele>318.052</ele>
        <time>2012-08-31T07:50:20Z</time>
      </trkpt>
      <trkpt lat="47.2994" lon="4.99988">
        <ele>317.7</ele>
        <time>2012-08-31T07:50:31Z</time>
      </trkpt>
      <trkpt lat="47.29947" lon="4.99978">
        <ele>320.212</ele>
        <time>2012-08-31T07:50:42Z</time>
      </trkpt>
      <trkpt lat="47.29952" lon="4.99968">
        <ele>322.291</ele>
        <time>2012-08-31T07:50:53Z</time>
      </trkpt>
      <trkpt lat="47.29957" lon="4.99955">
        <ele>325.443</ele>
        <time>2012-08-31T07:51:04Z</time>
      </trkpt>
      <trkpt lat="47.29963" lon="4.99943">
        <ele>328.436</ele>
        <time>2012-08-31T07:51:15Z</time>
      </trkpt>
      <trkpt lat="47.2997" lon="4.99927">
        <ele>331.11</ele>
        <time>2012-08-31T07:51:26Z</time>
      </trkpt>
      <trkpt lat="47.29977" lon="4.99915">
        <ele>336.563</ele>
        <time>2012-08-31T07:51:37Z</time>
      </trkpt>
      <trkpt lat="47.29978" lon="4.99903">
        <ele>337.903</ele>
        <time>2012-08-31T07:51:48Z</time>
      </trkpt>
      <trkpt lat="47.29978" lon="4.99893">
        <ele>338.064</ele>
        <time>2012-08-31T07:51:59Z</time>
      </trkpt>
      <trkpt lat="47.29983" lon="4.99882">
        <ele>341.771</ele>
        <time>2012-08-31T07:52:10Z</time>
      </trkpt>
      <trkpt lat="47.29985" lon="4.99867">
        <ele>341.901</ele>
        <time>2012-08-31T07:52:21Z</time>
      </trkpt>
      <trkpt lat="47.29985" lon="4.99852">
        <ele>345.504</ele>
        <time>2012-08-31T07:52:32Z</time>
      </trkpt>
      <trkpt lat="47.29987" lon="4.99842">
        <ele>345.851</ele>
        <time>2012-08-31T07:52:43Z</time>
      </trkpt>
      <trkpt lat="47.29985" lon="4.99832">
        <ele>348.577</ele>
        <time>2012-08-31T07:52:54Z</time>
      </trkpt>
      <trkpt lat="47.29983" lon="4.99818">
        <ele>351.184</ele>
        <time>2012-08-31T07:53:05Z</time>
      </trkpt>
      <trkpt lat="47.2998" lon="4.99813">
        <ele>351.267</ele>
        <time>2012-08-31T07:53:16Z</time>
      </trkpt>
      <trkpt lat="47.2998" lon="4.99808">
        <ele>350.62</ele>
        <time>2012-08-31T07:53:27Z</time>
      </trkpt>
      <trkpt lat="47.29978" lon="4.99805">
        <ele>351.741</ele>
        <time>2012-08-31T07:53:38Z</time>
      </trkpt>
      <trkpt lat="47.29977" lon="4.99795">
        <ele>354.849</ele>
        <time>2012-08-31T07:53:49Z</time>
      </trkpt>
      <trkpt lat="47.29978" lon="4.99787">
        <ele>357.262</ele>
        <time>2012-08-31T07:54:00Z</time>
      </trkpt>
      <trkpt lat="47.29978" lon="4.99783">
        <ele>359.102</ele>
        <time>2012-08-31T07:54:11Z</time>
      </trkpt>
      <trkpt lat="47.29982" lon="4.99772">
        <ele>359.997</ele>
        <time>2012-08-31T07:54:22Z</time>
      </trkpt>
      <trkpt lat="47.29982" lon="4.99768">
        <ele>362.303</ele>
        <time>2012-08-31T07:54:33Z</time>
      </trkpt>
      <trkpt lat="47.29988" lon="4.99757">
        <ele>363.168</ele>
        <time>2012-08-31T07:54:44Z</time>
      </trkpt>
      <trkpt lat="47.2999" lon="4.99748">
        <ele>363.922</ele>
        <time>2012-08-31T07:54:55Z</time>
      </trkpt>
      <trkpt lat="47.2999" lon="4.9974">
        <ele>365.375</ele>
        <time>2012-08-31T07:55:06Z</time>
      </trkpt>
      <trkpt lat="47.29992" lon="4.99732">
        <ele>365.614</ele>
        <time>2012-08-31T07:55:17Z</time>
      </trkpt>
      <trkpt lat="47.29995" lon="4.9972">
        <ele>365.431</ele>
        <time>2012-08-31T07:55:28Z</time>
      </trkpt>
      <trkpt lat="47.3" lon="4.99707">
        <ele>366.972</ele>
        <time>2012-08-31T07:55:39Z</time>
      </trkpt>
      <trkpt lat="47.3" lon="4.99692">
        <ele>368.984</ele>
        <time>2012-08-31T07:55:50Z</time>
      </trkpt>
      <trkpt lat="47.30005" lon="4.99677">
        <ele>369.383</ele>
        <time>2012-08-31T07:56:01Z</time>
      </trkpt>
      <trkpt lat="47.30012" lon="4.99663">
        <ele>370.562</ele>
        <time>2012-08-31T07:56:12Z</time>
      </trkpt>
      <trkpt lat="47.30017" lon="4.99643">
        <ele>372.309</ele>
        <time>2012-08-31T07:56:23Z</time>
      </trkpt>
      <trkpt lat="47.30022" lon="4.99625">
        <ele>374.201</ele>
        <time>2012-08-31T07:56:34Z</time>
      </trkpt>
      <trkpt lat="47.30022" lon="4.99608">
        <ele>375.43</ele>
        <time>2012-08-31T07:56:45Z</time>
      </trkpt>
      <trkpt lat="47.30025" lon="4.99587">
        <ele>376.234</ele>
        <time>2012-08-31T07:56:56Z</time>
      </trkpt>
      <trkpt lat="47.30027" lon="4.99567">
        <ele>380.053</ele>
        <time>2012-08-31T07:57:07Z</time>
      </trkpt>
      <trkpt lat="47.3003" lon="4.99552">
        <ele>382.738</ele>
        <time>2012-08-31T07:57:18Z</time>
      </trkpt>
      <trkpt lat="47.30033" lon="4.99537">
        <ele>382.617</ele>
        <time>2012-08-31T07:57:29Z</time>
      </trkpt>
      <trkpt lat="47.30038" lon="4.99522">
        <ele>384.078</ele>
        <time>2012-08-31T07:57:40Z</time>
      </trkpt>
      <trkpt lat="47.30045" lon="4.99508">
        <ele>381.075</ele>
        <time>2012-08-31T07:57:51Z</time>
      </trkpt>
      <trkpt lat="47.30045" lon="4.99507">
        <ele>380.836</ele>
        <time>2012-08-31T07:58:02Z</time>
      </trkpt>
      <trkpt lat="47.30048" lon="4.99498">
        <ele>380.202</ele>
        <time>2012-08-31T07:58:13Z</time>
      </trkpt>
      <trkpt lat="47.30052" lon="4.99487">
        <ele>380.379</ele>
        <time>2012-08-31T07:58:24Z</time>
      </trkpt>
      <trkpt lat="47.30055" lon="4.99482">
        <ele>381.42</ele>
        <time>2012-08-31T07:58:35Z</time>
      </trkpt>
      <trkpt lat="47.30057" lon="4.99475">
        <ele>382.649</ele>
        <time>2012-08-31T07:58:46Z</time>
      </trkpt>
      <trkpt lat="47.30058" lon="4.99462">
        <ele>383.469</ele>
        <time>2012-08-31T07:58:57Z</time>
      </trkpt>
      <trkpt lat="47.30063" lon="4.99448">
        <ele>384.385</ele>
        <time>2012-08-31T07:59:08Z</time>
      </trkpt>
      <trkpt lat="47.30065" lon="4.99438">
        <ele>386.043</ele>
        <time>2012-08-31T07:59:19Z</time>
      </trkpt>
      <trkpt lat="47.30065" lon="4.9942">
        <ele>389.14</ele>
        <time>2012-08-31T07:59:30Z</time>
      </trkpt>
      <trkpt lat="47.30065" lon="4.99412">
        <ele>389.699</ele>
        <time>2012-08-31T07:59:41Z</time>
      </trkpt>
      <trkpt lat="47.30067" lon="4.99407">
        <ele>389.393</ele>
        <time>2012-08-31T07:59:52Z</time>
      </trkpt>
      <trkpt lat="47.30067" lon="4.99407">
        <ele>389.393</ele>
        <time>2012-08-31T08:00:03Z</time>
      </trkpt>
      <trkpt lat="47.30067" lon="4.99405">
        <ele>388.931</ele>
        <time>2012-08-31T08:00:14Z</time>
      </trkpt>
      <trkpt lat="47.30072" lon="4.99395">
        <ele>390.08</ele>
        <time>2012-08-31T08:00:25Z</time>
      </trkpt>
      <trkpt lat="47.30082" lon="4.99382">
        <ele>390.399</ele>
        <time>2012-08-31T08:00:36Z</time>
      </trkpt>
      <trkpt lat="47.30087" lon="4.99375">
        <ele>389.185</ele>
        <time>2012-08-31T08:00:47Z</time>
      </trkpt>
      <trkpt lat="47.301" lon="4.99373">
        <ele>389.633</ele>
        <time>2012-08-31T08:00:58Z</time>
      </trkpt>
      <trkpt lat="47.30105" lon="4.99367">
        <ele>391.318</ele>
        <time>2012-08-31T08:01:09Z</time>
      </trkpt>
      <trkpt lat="47.30105" lon="4.99353">
        <ele>393.508</ele>
        <time>2012-08-31T08:01:20Z</time>
      </trkpt>
      <trkpt lat="47.30103" lon="4.99338">
        <ele>395.749</ele>
        <time>2012-08-31T08:01:31Z</time>
      </trkpt>
      <trkpt lat="47.30105" lon="4.99323">
        <ele>397.478</ele>
        <time>2012-08-31T08:01:42Z</time>
      </trkpt>
      <trkpt lat="47.30107" lon="4.993">
        <ele>400.473</ele>
        <time>2012-08-31T08:01:53Z</time>
      </trkpt>
      <trkpt lat="47.30108" lon="4.99283">
        <ele>401.478</ele>
        <time>2012-08-31T08:02:04Z</time>
      </trkpt>
      <trkpt lat="47.30105" lon="4.99265">
        <ele>400.163</ele>
        <time>2012-08-31T08:02:15Z</time>
      </trkpt>
      <trkpt lat="47.30107" lon="4.99247">
        <ele>398.385</ele>
        <time>2012-08-31T08:02:26Z</time>
      </trkpt>
      <trkpt lat="47.30112" lon="4.99233">
        <ele>397.269</ele>
        <time>2012-08-31T08:02:37Z</time>
      </trkpt>
      <trkpt lat="47.30113" lon="4.99218">
        <ele>397.204</ele>
        <time>2012-08-31T08:02:48Z</time>
      </trkpt>
      <trkpt lat="47.30103" lon="4.99208">
        <ele>399.408</ele>
        <time>2012-08-31T08:02:59Z</time>
      </trkpt>
      <trkpt lat="47.30102" lon="4.99198">
        <ele>400.791</ele>
        <time>2012-08-31T08:03:10Z</time>
      </trkpt>
      <trkpt lat="47.30095" lon="4.99188">
        <ele>400.299</ele>
        <time>2012-08-31T08:03:21Z</time>
      </trkpt>
      <trkpt lat="47.3009" lon="4.99175">
        <ele>398.085</ele>
        <time>2012-08-31T08:03:32Z</time>
      </trkpt>
      <trkpt lat="47.30082" lon="4.99165">
        <ele>398.699</ele>
        <time>2012-08-31T08:03:43Z</time>
      </trkpt>
      <trkpt lat="47.30077" lon="4.99153">
        <ele>398.515</ele>
        <time>2012-08-31T08:03:54Z</time>
      </trkpt>
      <trkpt lat="47.30077" lon="4.99148">
        <ele>397.667</ele>
        <time>2012-08-31T08:04:05Z</time>
      </trkpt>
      <trkpt lat="47.30078" lon="4.99145">
        <ele>397.781</ele>
        <time>2012-08-31T08:04:16Z</time>
      </trkpt>
      <trkpt lat="47.30077" lon="4.99142">
        <ele>398.265</ele>
        <time>2012-08-31T08:04:27Z</time>
      </trkpt>
      <trkpt lat="47.30065" lon="4.9913">
        <ele>398.07</ele>
        <time>2012-08-31T08:04:38Z</time>
      </trkpt>
      <trkpt lat="47.30058" lon="4.99117">
        <ele>399.718</ele>
        <time>2012-08-31T08:04:49Z</time>
      </trkpt>
      <trkpt lat="47.30055" lon="4.99103">
        <ele>398.715</ele>
        <time>2012-08-31T08:05:00Z</time>
      </trkpt>
      <trkpt lat="47.30048" lon="4.99088">
        <ele>400.957</ele>
        <time>2012-08-31T08:05:11Z</time>
      </trkpt>
      <trkpt lat="47.30055" lon="4.99075">
        <ele>399.16</ele>
        <time>2012-08-31T08:05:22Z</time>
      </trkpt>
      <trkpt lat="47.3006" lon="4.99062">
        <ele>398.103</ele>
        <time>2012-08-31T08:05:33Z</time>
      </trkpt>
      <trkpt lat="47.30067" lon="4.99043">
        <ele>398.8</ele>
        <time>2012-08-31T08:05:44Z</time>
      </trkpt>
      <trkpt lat="47.30075" lon="4.99028">
        <ele>397.184</ele>
        <time>2012-08-31T08:05:55Z</time>
      </trkpt>
      <trkpt lat="47.30072" lon="4.99005">
        <ele>393.905</ele>
        <time>2012-08-31T08:06:06Z</time>
      </trkpt>
      <trkpt lat="47.3007" lon="4.98985">
        <ele>387.785</ele>
        <time>2012-08-31T08:06:17Z</time>
      </trkpt>
      <trkpt lat="47.30068" lon="4.98963">
        <ele>383.474</ele>
        <time>2012-08-31T08:06:28Z</time>
      </trkpt>
      <trkpt lat="47.30067" lon="4.98942">
        <ele>383.822</ele>
        <time>2012-08-31T08:06:39Z</time>
      </trkpt>
      <trkpt lat="47.30067" lon="4.98922">
        <ele>383.593</ele>
        <time>2012-08-31T08:06:50Z</time>
      </trkpt>
      <trkpt lat="47.30063" lon="4.989">
        <ele>383.965</ele>
        <time>2012-08-31T08:07:01Z</time>
      </trkpt>
      <trkpt lat="47.30062" lon="4.98892">
        <ele>383.808</ele>
        <time>2012-08-31T08:07:12Z</time>
      </trkpt>
      <trkpt lat="47.30058" lon="4.98875">
        <ele>383.741</ele>
        <time>2012-08-31T08:07:23Z</time>
      </trkpt>
      <trkpt lat="47.30057" lon="4.98855">
        <ele>385.171</ele>
        <time>2012-08-31T08:07:34Z</time>
      </trkpt>
      <trkpt lat="47.30055" lon="4.98835">
        <ele>385.712</ele>
        <time>2012-08-31T08:07:45Z</time>
      </trkpt>
      <trkpt lat="47.30052" lon="4.98817">
        <ele>385.911</ele>
        <time>2012-08-31T08:07:56Z</time>
      </trkpt>
      <trkpt lat="47.30048" lon="4.98798">
        <ele>387.374</ele>
        <time>2012-08-31T08:08:07Z</time>
      </trkpt>
      <trkpt lat="47.30043" lon="4.98778">
        <ele>389.1</ele>
        <time>2012-08-31T08:08:18Z</time>
      </trkpt>
      <trkpt lat="47.3004" lon="4.98762">
        <ele>392.465</ele>
        <time>2012-08-31T08:08:29Z</time>
      </trkpt>
      <trkpt lat="47.3004" lon="4.9874">
        <ele>393.979</ele>
        <time>2012-08-31T08:08:40Z</time>
      </trkpt>
      <trkpt lat="47.30045" lon="4.98725">
        <ele>396.025</ele>
        <time>2012-08-31T08:08:51Z</time>
      </trkpt>
      <trkpt lat="47.30055" lon="4.98708">
        <ele>395.365</ele>
        <time>2012-08-31T08:09:02Z</time>
      </trkpt>
      <trkpt lat="47.30065" lon="4.98695">
        <ele>396.903</ele>
        <time>2012-08-31T08:09:13Z</time>
      </trkpt>
      <trkpt lat="47.30075" lon="4.9868">
        <ele>396.853</ele>
        <time>2012-08-31T08:09:24Z</time>
      </trkpt>
      <trkpt lat="47.30083" lon="4.98662">
        <ele>396.84</ele>
        <time>2012-08-31T08:09:35Z</time>
      </trkpt>
      <trkpt lat="47.30092" lon="4.98645">
        <ele>397.033</ele>
        <time>2012-08-31T08:09:46Z</time>
      </trkpt>
      <trkpt lat="47.30103" lon="4.98628">
        <ele>394.086</ele>
        <time>2012-08-31T08:09:57Z</time>
      </trkpt>
      <trkpt lat="47.30113" lon="4.98615">
        <ele>393.482</ele>
        <time>2012-08-31T08:10:08Z</time>
      </trkpt>
      <trkpt lat="47.30122" lon="4.98602">
        <ele>393.023</ele>
        <time>2012-08-31T08:10:19Z</time>
      </trkpt>
      <trkpt lat="47.30127" lon="4.98582">
        <ele>393.028</ele>
        <time>2012-08-31T08:10:30Z</time>
      </trkpt>
      <trkpt lat="47.30132" lon="4.98562">
        <ele>393.565</ele>
        <time>2012-08-31T08:10:41Z</time>
      </trkpt>
      <trkpt lat="47.30135" lon="4.9854">
        <ele>394.244</ele>
        <time>2012-08-31T08:10:52Z</time>
      </trkpt>
      <trkpt lat="47.30138" lon="4.98522">
        <ele>394.921</ele>
        <time>2012-08-31T08:11:03Z</time>
      </trkpt>
      <trkpt lat="47.3014" lon="4.98503">
        <ele>395.129</ele>
        <time>2012-08-31T08:11:14Z</time>
      </trkpt>
      <trkpt lat="47.30143" lon="4.98482">
        <ele>395.256</ele>
        <time>2012-08-31T08:11:25Z</time>
      </trkpt>
      <trkpt lat="47.30143" lon="4.98458">
        <ele>395.662</ele>
        <time>2012-08-31T08:11:36Z</time>
      </trkpt>
      <trkpt lat="47.30142" lon="4.9844">
        <ele>396.923</ele>
        <time>2012-08-31T08:11:47Z</time>
      </trkpt>
      <trkpt lat="47.30135" lon="4.98418">
        <ele>396.376</ele>
        <time>2012-08-31T08:11:58Z</time>
      </trkpt>
      <trkpt lat="47.30133" lon="4.98402">
        <ele>396.789</ele>
        <time>2012-08-31T08:12:09Z</time>
      </trkpt>
      <trkpt lat="47.30137" lon="4.98387">
        <ele>397.163</ele>
        <time>2012-08-31T08:12:20Z</time>
      </trkpt>
      <trkpt lat="47.3014" lon="4.98365">
        <ele>395.695</ele>
        <time>2012-08-31T08:12:31Z</time>
      </trkpt>
      <trkpt lat="47.30143" lon="4.98347">
        <ele>396.186</ele>
        <time>2012-08-31T08:12:42Z</time>
      </trkpt>
      <trkpt lat="47.30147" lon="4.98333">
        <ele>398.749</ele>
        <time>2012-08-31T08:12:53Z</time>
      </trkpt>
      <trkpt lat="47.30152" lon="4.98318">
        <ele>400.761</ele>
        <time>2012-08-31T08:13:04Z</time>
      </trkpt>
      <trkpt lat="47.30155" lon="4.98298">
        <ele>400.016</ele>
        <time>2012-08-31T08:13:15Z</time>
      </trkpt>
      <trkpt lat="47.30158" lon="4.98283">
        <ele>400.695</ele>
        <time>2012-08-31T08:13:26Z</time>
      </trkpt>
      <trkpt lat="47.30162" lon="4.98267">
        <ele>400.689</ele>
        <time>2012-08-31T08:13:37Z</time>
      </trkpt>
      <trkpt lat="47.30163" lon="4.9825">
        <ele>399.096</ele>
        <time>2012-08-31T08:13:48Z</time>
      </trkpt>
      <trkpt lat="47.30167" lon="4.98233">
        <ele>400.144</ele>
        <time>2012-08-31T08:13:59Z</time>
      </trkpt>
      <trkpt lat="47.30175" lon="4.98217">
        <ele>398.052</ele>
        <time>2012-08-31T08:14:10Z</time>
      </trkpt>
      <trkpt lat="47.30183" lon="4.98208">
        <ele>395.564</ele>
        <time>2012-08-31T08:14:21Z</time>
      </trkpt>
      <trkpt lat="47.30198" lon="4.98202">
        <ele>388.703</ele>
        <time>2012-08-31T08:14:32Z</time>
      </trkpt>
      <trkpt lat="47.30213" lon="4.98197">
        <ele>385.445</ele>
        <time>2012-08-31T08:14:43Z</time>
      </trkpt>
      <trkpt lat="47.30225" lon="4.98197">
        <ele>383.626</ele>
        <time>2012-08-31T08:14:54Z</time>
      </trkpt>
      <trkpt lat="47.3024" lon="4.98188">
        <ele>381.278</ele>
        <time>2012-08-31T08:15:05Z</time>
      </trkpt>
      <trkpt lat="47.30252" lon="4.98173">
        <ele>381.477</ele>
        <time>2012-08-31T08:15:16Z</time>
      </trkpt>
      <trkpt lat="47.3026" lon="4.98163">
        <ele>380.976</ele>
        <time>2012-08-31T08:15:27Z</time>
      </trkpt>
      <trkpt lat="47.30268" lon="4.98148">
        <ele>380.652</ele>
        <time>2012-08-31T08:15:38Z</time>
      </trkpt>
      <trkpt lat="47.30275" lon="4.98128">
        <ele>381.347</ele>
        <time>2012-08-31T08:15:49Z</time>
      </trkpt>
      <trkpt lat="47.30283" lon="4.98113">
        <ele>380.681</ele>
        <time>2012-08-31T08:16:00Z</time>
      </trkpt>
      <trkpt lat="47.30288" lon="4.98105">
        <ele>380.766</ele>
        <time>2012-08-31T08:16:11Z</time>
      </trkpt>
      <trkpt lat="47.30288" lon="4.98105">
        <ele>380.584</ele>
        <time>2012-08-31T08:16:22Z</time>
      </trkpt>
      <trkpt lat="47.30287" lon="4.98093">
        <ele>381.546</ele>
        <time>2012-08-31T08:16:33Z</time>
      </trkpt>
      <trkpt lat="47.30283" lon="4.98078">
        <ele>383.303</ele>
        <time>2012-08-31T08:16:44Z</time>
      </trkpt>
      <trkpt lat="47.30277" lon="4.9806">
        <ele>384.213</ele>
        <time>2012-08-31T08:16:55Z</time>
      </trkpt>
      <trkpt lat="47.30272" lon="4.98043">
        <ele>386.242</ele>
        <time>2012-08-31T08:17:06Z</time>
      </trkpt>
      <trkpt lat="47.30267" lon="4.98022">
        <ele>385.438</ele>
        <time>2012-08-31T08:17:17Z</time>
      </trkpt>
      <trkpt lat="47.3026" lon="4.98003">
        <ele>386.807</ele>
        <time>2012-08-31T08:17:28Z</time>
      </trkpt>
      <trkpt lat="47.30257" lon="4.97987">
        <ele>388.193</ele>
        <time>2012-08-31T08:17:39Z</time>
      </trkpt>
      <trkpt lat="47.30248" lon="4.97968">
        <ele>388.204</ele>
        <time>2012-08-31T08:17:50Z</time>
      </trkpt>
      <trkpt lat="47.3024" lon="4.97953">
        <ele>388.593</ele>
        <time>2012-08-31T08:18:01Z</time>
      </trkpt>
      <trkpt lat="47.30233" lon="4.97938">
        <ele>388.403</ele>
        <time>2012-08-31T08:18:12Z</time>
      </trkpt>
      <trkpt lat="47.30225" lon="4.97915">
        <ele>388.719</ele>
        <time>2012-08-31T08:18:23Z</time>
      </trkpt>
      <trkpt lat="47.30218" lon="4.97897">
        <ele>389.751</ele>
        <time>2012-08-31T08:18:34Z</time>
      </trkpt>
      <trkpt lat="47.30213" lon="4.97878">
        <ele>388.429</ele>
        <time>2012-08-31T08:18:45Z</time>
      </trkpt>
      <trkpt lat="47.30207" lon="4.97858">
        <ele>389.004</ele>
        <time>2012-08-31T08:18:56Z</time>
      </trkpt>
      <trkpt lat="47.30197" lon="4.97843">
        <ele>390.386</ele>
        <time>2012-08-31T08:19:07Z</time>
      </trkpt>
      <trkpt lat="47.30187" lon="4.97827">
        <ele>392.002</ele>
        <time>2012-08-31T08:19:18Z</time>
      </trkpt>
      <trkpt lat="47.30177" lon="4.97808">
        <ele>392.493</ele>
        <time>2012-08-31T08:19:29Z</time>
      </trkpt>
      <trkpt lat="47.30172" lon="4.97788">
        <ele>392.526</ele>
        <time>2012-08-31T08:19:40Z</time>
      </trkpt>
      <trkpt lat="47.30162" lon="4.97772">
        <ele>392.945</ele>
        <time>2012-08-31T08:19:51Z</time>
      </trkpt>
      <trkpt lat="47.30157" lon="4.97753">
        <ele>394.697</ele>
        <time>2012-08-31T08:20:02Z</time>
      </trkpt>
      <trkpt lat="47.30153" lon="4.97738">
        <ele>397.926</ele>
        <time>2012-08-31T08:20:13Z</time>
      </trkpt>
      <trkpt lat="47.30147" lon="4.97722">
        <ele>400.764</ele>
        <time>2012-08-31T08:20:24Z</time>
      </trkpt>
      <trkpt lat="47.30137" lon="4.97703">
        <ele>402.413</ele>
        <time>2012-08-31T08:20:35Z</time>
      </trkpt>
      <trkpt lat="47.30128" lon="4.97692">
        <ele>402.144</ele>
        <time>2012-08-31T08:20:46Z</time>
      </trkpt>
      <trkpt lat="47.30118" lon="4.97675">
        <ele>400.61</ele>
        <time>2012-08-31T08:20:57Z</time>
      </trkpt>
      <trkpt lat="47.30107" lon="4.97655">
        <ele>398.848</ele>
        <time>2012-08-31T08:21:08Z</time>
      </trkpt>
      <trkpt lat="47.30097" lon="4.9764">
        <ele>397.479</ele>
        <time>2012-08-31T08:21:19Z</time>
      </trkpt>
      <trkpt lat="47.30087" lon="4.97622">
        <ele>397.713</ele>
        <time>2012-08-31T08:21:30Z</time>
      </trkpt>
      <trkpt lat="47.30078" lon="4.97603">
        <ele>397.025</ele>
        <time>2012-08-31T08:21:41Z</time>
      </trkpt>
      <trkpt lat="47.3007" lon="4.97583">
        <ele>396.874</ele>
        <time>2012-08-31T08:21:52Z</time>
      </trkpt>
      <trkpt lat="47.30063" lon="4.97567">
        <ele>395.722</ele>
        <time>2012-08-31T08:22:03Z</time>
      </trkpt>
      <trkpt lat="47.30057" lon="4.9755">
        <ele>395.323</ele>
        <time>2012-08-31T08:22:14Z</time>
      </trkpt>
      <trkpt lat="47.30048" lon="4.97533">
        <ele>393.855</ele>
        <time>2012-08-31T08:22:25Z</time>
      </trkpt>
      <trkpt lat="47.30042" lon="4.97517">
        <ele>395.391</ele>
        <time>2012-08-31T08:22:36Z</time>
      </trkpt>
      <trkpt lat="47.30033" lon="4.975">
        <ele>396.289</ele>
        <time>2012-08-31T08:22:47Z</time>
      </trkpt>
      <trkpt lat="47.30023" lon="4.97485">
        <ele>397.231</ele>
        <time>2012-08-31T08:22:58Z</time>
      </trkpt>
      <trkpt lat="47.30013" lon="4.97467">
        <ele>396.993</ele>
        <time>2012-08-31T08:23:09Z</time>
      </trkpt>
      <trkpt lat="47.30005" lon="4.97452">
        <ele>396.699</ele>
        <time>2012-08-31T08:23:20Z</time>
      </trkpt>
      <trkpt lat="47.29997" lon="4.97433">
        <ele>396.064</ele>
        <time>2012-08-31T08:23:31Z</time>
      </trkpt>
      <trkpt lat="47.2999" lon="4.97415">
        <ele>396.254</ele>
        <time>2012-08-31T08:23:42Z</time>
      </trkpt>
      <trkpt lat="47.2998" lon="4.97397">
        <ele>396.022</ele>
        <time>2012-08-31T08:23:53Z</time>
      </trkpt>
      <trkpt lat="47.29973" lon="4.9738">
        <ele>396.437</ele>
        <time>2012-08-31T08:24:04Z</time>
      </trkpt>
      <trkpt lat="47.29963" lon="4.97365">
        <ele>396.755</ele>
        <time>2012-08-31T08:24:15Z</time>
      </trkpt>
      <trkpt lat="47.29955" lon="4.9735">
        <ele>395.682</ele>
        <time>2012-08-31T08:24:26Z</time>
      </trkpt>
      <trkpt lat="47.29948" lon="4.97333">
        <ele>395.945</ele>
        <time>2012-08-31T08:24:37Z</time>
      </trkpt>
      <trkpt lat="47.29943" lon="4.97315">
        <ele>396.305</ele>
        <time>2012-08-31T08:24:48Z</time>
      </trkpt>
      <trkpt lat="47.29937" lon="4.97297">
        <ele>396.193</ele>
        <time>2012-08-31T08:24:59Z</time>
      </trkpt>
      <trkpt lat="47.29928" lon="4.97282">
        <ele>397.533</ele>
        <time>2012-08-31T08:25:10Z</time>
      </trkpt>
      <trkpt lat="47.2992" lon="4.97268">
        <ele>399.287</ele>
        <time>2012-08-31T08:25:21Z</time>
      </trkpt>
      <trkpt lat="47.29913" lon="4.9725">
        <ele>400.555</ele>
        <time>2012-08-31T08:25:32Z</time>
      </trkpt>
      <trkpt lat="47.29907" lon="4.97235">
        <ele>402.212</ele>
        <time>2012-08-31T08:25:43Z</time>
      </trkpt>
      <trkpt lat="47.29898" lon="4.97217">
        <ele>402.255</ele>
        <time>2012-08-31T08:25:54Z</time>
      </trkpt>
      <trkpt lat="47.29892" lon="4.97207">
        <ele>403.966</ele>
        <time>2012-08-31T08:26:05Z</time>
      </trkpt>
      <trkpt lat="47.29885" lon="4.97195">
        <ele>404.348</ele>
        <time>2012-08-31T08:26:16Z</time>
      </trkpt>
      <trkpt lat="47.29877" lon="4.97183">
        <ele>404.201</ele>
        <time>2012-08-31T08:26:27Z</time>
      </trkpt>
      <trkpt lat="47.29872" lon="4.97178">
        <ele>404.763</ele>
        <time>2012-08-31T08:26:38Z</time>
      </trkpt>
      <trkpt lat="47.29858" lon="4.97187">
        <ele>401.227</ele>
        <time>2012-08-31T08:26:49Z</time>
      </trkpt>
      <trkpt lat="47.29853" lon="4.97192">
        <ele>400.746</ele>
        <time>2012-08-31T08:27:00Z</time>
      </trkpt>
      <trkpt lat="47.29853" lon="4.97192">
        <ele>400.88</ele>
        <time>2012-08-31T08:27:11Z</time>
      </trkpt>
      <trkpt lat="47.29853" lon="4.97192">
        <ele>400.88</ele>
        <time>2012-08-31T08:27:22Z</time>
      </trkpt>
      <trkpt lat="47.29853" lon="4.97192">
        <ele>400.88</ele>
        <time>2012-08-31T08:27:33Z</time>
      </trkpt>
      <trkpt lat="47.29853" lon="4.97192">
        <ele>400.88</ele>
        <time>2012-08-31T08:27:44Z</time>
      </trkpt>
      <trkpt lat="47.29853" lon="4.97192">
        <ele>401.249</ele>
        <time>2012-08-31T08:27:55Z</time>
      </trkpt>
      <trkpt lat="47.29852" lon="4.9719">
        <ele>401.663</ele>
        <time>2012-08-31T08:28:06Z</time>
      </trkpt>
      <trkpt lat="47.29852" lon="4.9719">
        <ele>401.663</ele>
        <time>2012-08-31T08:28:17Z</time>
      </trkpt>
      <trkpt lat="47.29852" lon="4.9719">
        <ele>401.663</ele>
        <time>2012-08-31T08:28:28Z</time>
      </trkpt>
      <trkpt lat="47.29852" lon="4.9719">
        <ele>401.663</ele>
        <time>2012-08-31T08:28:39Z</time>
      </trkpt>
      <trkpt lat="47.29852" lon="4.9719">
        <ele>401.663</ele>
        <time>2012-08-31T08:28:50Z</time>
      </trkpt>
      <trkpt lat="47.29852" lon="4.97187">
        <ele>401.858</ele>
        <time>2012-08-31T08:29:01Z</time>
      </trkpt>
      <trkpt lat="47.29852" lon="4.97187">
        <ele>401.858</ele>
        <time>2012-08-31T08:29:12Z</time>
      </trkpt>
      <trkpt lat="47.29852" lon="4.97187">
        <ele>401.858</ele>
        <time>2012-08-31T08:29:23Z</time>
      </trkpt>
      <trkpt lat="47.29852" lon="4.97187">
        <ele>401.858</ele>
        <time>2012-08-31T08:29:34Z</time>
      </trkpt>
      <trkpt lat="47.29852" lon="4.97187">
        <ele>401.858</ele>
        <time>2012-08-31T08:29:45Z</time>
      </trkpt>
      <trkpt lat="47.29852" lon="4.97187">
        <ele>401.858</ele>
        <time>2012-08-31T08:29:56Z</time>
      </trkpt>
      <trkpt lat="47.29852" lon="4.97187">
        <ele>401.858</ele>
        <time>2012-08-31T08:30:07Z</time>
      </trkpt>
      <trkpt lat="47.29852" lon="4.97187">
        <ele>401.858</ele>
        <time>2012-08-31T08:30:18Z</time>
      </trkpt>
      <trkpt lat="47.29852" lon="4.97187">
        <ele>401.858</ele>
        <time>2012-08-31T08:30:29Z</time>
      </trkpt>
      <trkpt lat="47.29852" lon="4.97187">
        <ele>401.87</ele>
        <time>2012-08-31T08:30:40Z</time>
      </trkpt>
      <trkpt lat="47.29852" lon="4.97187">
        <ele>401.87</ele>
        <time>2012-08-31T08:30:51Z</time>
      </trkpt>
      <trkpt lat="47.29845" lon="4.97187">
        <ele>401.994</ele>
        <time>2012-08-31T08:31:02Z</time>
      </trkpt>
      <trkpt lat="47.29832" lon="4.9719">
        <ele>401.583</ele>
        <time>2012-08-31T08:31:13Z</time>
      </trkpt>
      <trkpt lat="47.29818" lon="4.9718">
        <ele>401.687</ele>
        <time>2012-08-31T08:31:24Z</time>
      </trkpt>
      <trkpt lat="47.29807" lon="4.97168">
        <ele>402.09</ele>
        <time>2012-08-31T08:31:35Z</time>
      </trkpt>
      <trkpt lat="47.298" lon="4.97162">
        <ele>403.473</ele>
        <time>2012-08-31T08:31:46Z</time>
      </trkpt>
      <trkpt lat="47.29787" lon="4.97152">
        <ele>403.146</ele>
        <time>2012-08-31T08:31:57Z</time>
      </trkpt>
      <trkpt lat="47.2978" lon="4.9714">
        <ele>403.021</ele>
        <time>2012-08-31T08:32:08Z</time>
      </trkpt>
      <trkpt lat="47.29767" lon="4.97132">
        <ele>403.773</ele>
        <time>2012-08-31T08:32:19Z</time>
      </trkpt>
      <trkpt lat="47.29757" lon="4.97125">
        <ele>403.37</ele>
        <time>2012-08-31T08:32:30Z</time>
      </trkpt>
      <trkpt lat="47.29748" lon="4.97123">
        <ele>404.033</ele>
        <time>2012-08-31T08:32:41Z</time>
      </trkpt>
      <trkpt lat="47.29747" lon="4.97123">
        <ele>403.675</ele>
        <time>2012-08-31T08:32:52Z</time>
      </trkpt>
      <trkpt lat="47.29745" lon="4.97118">
        <ele>403.227</ele>
        <time>2012-08-31T08:33:03Z</time>
      </trkpt>
      <trkpt lat="47.29743" lon="4.97115">
        <ele>402.876</ele>
        <time>2012-08-31T08:33:14Z</time>
      </trkpt>
      <trkpt lat="47.29745" lon="4.97113">
        <ele>403.41</ele>
        <time>2012-08-31T08:33:25Z</time>
      </trkpt>
      <trkpt lat="47.2975" lon="4.97107">
        <ele>403.241</ele>
        <time>2012-08-31T08:33:36Z</time>
      </trkpt>
      <trkpt lat="47.2975" lon="4.971">
        <ele>402.891</ele>
        <time>2012-08-31T08:33:47Z</time>
      </trkpt>
      <trkpt lat="47.2975" lon="4.97095">
        <ele>403.994</ele>
        <time>2012-08-31T08:33:58Z</time>
      </trkpt>
      <trkpt lat="47.2975" lon="4.97095">
        <ele>404.014</ele>
        <time>2012-08-31T08:34:09Z</time>
      </trkpt>
      <trkpt lat="47.29745" lon="4.97092">
        <ele>403.946</ele>
        <time>2012-08-31T08:34:20Z</time>
      </trkpt>
      <trkpt lat="47.29745" lon="4.9709">
        <ele>403.952</ele>
        <time>2012-08-31T08:34:31Z</time>
      </trkpt>
      <trkpt lat="47.29738" lon="4.97082">
        <ele>402.412</ele>
        <time>2012-08-31T08:34:42Z</time>
      </trkpt>
      <trkpt lat="47.29737" lon="4.97073">
        <ele>402.421</ele>
        <time>2012-08-31T08:34:53Z</time>
      </trkpt>
      <trkpt lat="47.29732" lon="4.97072">
        <ele>402.587</ele>
        <time>2012-08-31T08:35:04Z</time>
      </trkpt>
      <trkpt lat="47.29715" lon="4.97063">
        <ele>399.445</ele>
        <time>2012-08-31T08:35:15Z</time>
      </trkpt>
      <trkpt lat="47.29708" lon="4.97053">
        <ele>400.7</ele>
        <time>2012-08-31T08:35:26Z</time>
      </trkpt>
      <trkpt lat="47.297" lon="4.97048">
        <ele>396.749</ele>
        <time>2012-08-31T08:35:37Z</time>
      </trkpt>
      <trkpt lat="47.29693" lon="4.9704">
        <ele>393.26</ele>
        <time>2012-08-31T08:35:48Z</time>
      </trkpt>
      <trkpt lat="47.29687" lon="4.97033">
        <ele>390.732</ele>
        <time>2012-08-31T08:35:59Z</time>
      </trkpt>
      <trkpt lat="47.29685" lon="4.97033">
        <ele>390.579</ele>
        <time>2012-08-31T08:36:10Z</time>
      </trkpt>
      <trkpt lat="47.29675" lon="4.97027">
        <ele>389.96</ele>
        <time>2012-08-31T08:36:21Z</time>
      </trkpt>
      <trkpt lat="47.29668" lon="4.9702">
        <ele>390.565</ele>
        <time>2012-08-31T08:36:32Z</time>
      </trkpt>
      <trkpt lat="47.29662" lon="4.97015">
        <ele>387.096</ele>
        <time>2012-08-31T08:36:43Z</time>
      </trkpt>
      <trkpt lat="47.29655" lon="4.97012">
        <ele>386.401</ele>
        <time>2012-08-31T08:36:54Z</time>
      </trkpt>
      <trkpt lat="47.29647" lon="4.97005">
        <ele>385.018</ele>
        <time>2012-08-31T08:37:05Z</time>
      </trkpt>
      <trkpt lat="47.29635" lon="4.96998">
        <ele>383.585</ele>
        <time>2012-08-31T08:37:16Z</time>
      </trkpt>
      <trkpt lat="47.29628" lon="4.96995">
        <ele>383.658</ele>
        <time>2012-08-31T08:37:27Z</time>
      </trkpt>
      <trkpt lat="47.29627" lon="4.96995">
        <ele>383.609</ele>
        <time>2012-08-31T08:37:38Z</time>
      </trkpt>
      <trkpt lat="47.29623" lon="4.9699">
        <ele>383.409</ele>
        <time>2012-08-31T08:37:49Z</time>
      </trkpt>
      <trkpt lat="47.29615" lon="4.96978">
        <ele>383.915</ele>
        <time>2012-08-31T08:38:00Z</time>
      </trkpt>
      <trkpt lat="47.2961" lon="4.96968">
        <ele>383.196</ele>
        <time>2012-08-31T08:38:11Z</time>
      </trkpt>
      <trkpt lat="47.29603" lon="4.96955">
        <ele>384.551</ele>
        <time>2012-08-31T08:38:22Z</time>
      </trkpt>
      <trkpt lat="47.296" lon="4.96943">
        <ele>385.252</ele>
        <time>2012-08-31T08:38:33Z</time>
      </trkpt>
      <trkpt lat="47.29592" lon="4.9693">
        <ele>384.18</ele>
        <time>2012-08-31T08:38:44Z</time>
      </trkpt>
      <trkpt lat="47.29583" lon="4.96918">
        <ele>385.813</ele>
        <time>2012-08-31T08:38:55Z</time>
      </trkpt>
      <trkpt lat="47.29575" lon="4.96898">
        <ele>384.704</ele>
        <time>2012-08-31T08:39:06Z</time>
      </trkpt>
      <trkpt lat="47.29568" lon="4.9688">
        <ele>386.718</ele>
        <time>2012-08-31T08:39:17Z</time>
      </trkpt>
      <trkpt lat="47.29562" lon="4.96873">
        <ele>389.108</ele>
        <time>2012-08-31T08:39:28Z</time>
      </trkpt>
      <trkpt lat="47.29552" lon="4.9687">
        <ele>389.322</ele>
        <time>2012-08-31T08:39:39Z</time>
      </trkpt>
      <trkpt lat="47.2955" lon="4.9686">
        <ele>388.58</ele>
        <time>2012-08-31T08:39:50Z</time>
      </trkpt>
      <trkpt lat="47.29548" lon="4.96858">
        <ele>388.731</ele>
        <time>2012-08-31T08:40:01Z</time>
      </trkpt>
      <trkpt lat="47.29545" lon="4.96858">
        <ele>391.369</ele>
        <time>2012-08-31T08:40:12Z</time>
      </trkpt>
      <trkpt lat="47.29543" lon="4.96847">
        <ele>391.161</ele>
        <time>2012-08-31T08:40:23Z</time>
      </trkpt>
      <trkpt lat="47.29542" lon="4.96845">
        <ele>391.72</ele>
        <time>2012-08-31T08:40:34Z</time>
      </trkpt>
      <trkpt lat="47.29538" lon="4.96838">
        <ele>391.915</ele>
        <time>2012-08-31T08:40:45Z</time>
      </trkpt>
      <trkpt lat="47.29538" lon="4.96827">
        <ele>392.227</ele>
        <time>2012-08-31T08:40:56Z</time>
      </trkpt>
      <trkpt lat="47.29537" lon="4.96817">
        <ele>391.182</ele>
        <time>2012-08-31T08:41:07Z</time>
      </trkpt>
      <trkpt lat="47.29528" lon="4.96815">
        <ele>391.25</ele>
        <time>2012-08-31T08:41:18Z</time>
      </trkpt>
      <trkpt lat="47.29523" lon="4.96815">
        <ele>390.519</ele>
        <time>2012-08-31T08:41:29Z</time>
      </trkpt>
      <trkpt lat="47.29522" lon="4.9681">
        <ele>389.426</ele>
        <time>2012-08-31T08:41:40Z</time>
      </trkpt>
      <trkpt lat="47.29522" lon="4.9681">
        <ele>389.426</ele>
        <time>2012-08-31T08:41:51Z</time>
      </trkpt>
      <trkpt lat="47.29522" lon="4.9681">
        <ele>389.426</ele>
        <time>2012-08-31T08:42:02Z</time>
      </trkpt>
      <trkpt lat="47.29522" lon="4.9681">
        <ele>389.426</ele>
        <time>2012-08-31T08:42:13Z</time>
      </trkpt>
      <trkpt lat="47.29522" lon="4.9681">
        <ele>389.426</ele>
        <time>2012-08-31T08:42:24Z</time>
      </trkpt>
      <trkpt lat="47.29522" lon="4.96812">
        <ele>389.456</ele>
        <time>2012-08-31T08:42:35Z</time>
      </trkpt>
      <trkpt lat="47.2952" lon="4.96812">
        <ele>389.322</ele>
        <time>2012-08-31T08:42:46Z</time>
      </trkpt>
      <trkpt lat="47.2952" lon="4.96812">
        <ele>388.876</ele>
        <time>2012-08-31T08:42:57Z</time>
      </trkpt>
      <trkpt lat="47.29518" lon="4.96812">
        <ele>388.376</ele>
        <time>2012-08-31T08:43:08Z</time>
      </trkpt>
      <trkpt lat="47.29517" lon="4.96812">
        <ele>388.13</ele>
        <time>2012-08-31T08:43:19Z</time>
      </trkpt>
      <trkpt lat="47.29517" lon="4.96808">
        <ele>387.408</ele>
        <time>2012-08-31T08:43:30Z</time>
      </trkpt>
      <trkpt lat="47.29517" lon="4.96807">
        <ele>387.336</ele>
        <time>2012-08-31T08:43:41Z</time>
      </trkpt>
      <trkpt lat="47.29512" lon="4.96805">
        <ele>387.565</ele>
        <time>2012-08-31T08:43:52Z</time>
      </trkpt>
      <trkpt lat="47.29508" lon="4.96798">
        <ele>387.631</ele>
        <time>2012-08-31T08:44:03Z</time>
      </trkpt>
      <trkpt lat="47.29498" lon="4.96793">
        <ele>390.379</ele>
        <time>2012-08-31T08:44:14Z</time>
      </trkpt>
      <trkpt lat="47.29493" lon="4.96787">
        <ele>394.171</ele>
        <time>2012-08-31T08:44:25Z</time>
      </trkpt>
      <trkpt lat="47.29485" lon="4.96782">
        <ele>396.354</ele>
        <time>2012-08-31T08:44:36Z</time>
      </trkpt>
      <trkpt lat="47.29475" lon="4.96772">
        <ele>398.511</ele>
        <time>2012-08-31T08:44:47Z</time>
      </trkpt>
      <trkpt lat="47.29465" lon="4.96767">
        <ele>398.921</ele>
        <time>2012-08-31T08:44:58Z</time>
      </trkpt>
      <trkpt lat="47.29445" lon="4.96775">
        <ele>401.809</ele>
        <time>2012-08-31T08:45:09Z</time>
      </trkpt>
      <trkpt lat="47.29425" lon="4.9679">
        <ele>403.174</ele>
        <time>2012-08-31T08:45:20Z</time>
      </trkpt>
      <trkpt lat="47.29412" lon="4.968">
        <ele>401.691</ele>
        <time>2012-08-31T08:45:31Z</time>
      </trkpt>
      <trkpt lat="47.29403" lon="4.96815">
        <ele>406.206</ele>
        <time>2012-08-31T08:45:42Z</time>
      </trkpt>
      <trkpt lat="47.29397" lon="4.96827">
        <ele>407.957</ele>
        <time>2012-08-31T08:45:53Z</time>
      </trkpt>
      <trkpt lat="47.29385" lon="4.96842">
        <ele>407.685</ele>
        <time>2012-08-31T08:46:04Z</time>
      </trkpt>
      <trkpt lat="47.2938" lon="4.96853">
        <ele>406.579</ele>
        <time>2012-08-31T08:46:15Z</time>
      </trkpt>
      <trkpt lat="47.29373" lon="4.9686">
        <ele>406.857</ele>
        <time>2012-08-31T08:46:26Z</time>
      </trkpt>
      <trkpt lat="47.29363" lon="4.96863">
        <ele>406.986</ele>
        <time>2012-08-31T08:46:37Z</time>
      </trkpt>
      <trkpt lat="47.2935" lon="4.96863">
        <ele>407.291</ele>
        <time>2012-08-31T08:46:48Z</time>
      </trkpt>
      <trkpt lat="47.29337" lon="4.9686">
        <ele>409.951</ele>
        <time>2012-08-31T08:46:59Z</time>
      </trkpt>
      <trkpt lat="47.29323" lon="4.96863">
        <ele>409.345</ele>
        <time>2012-08-31T08:47:10Z</time>
      </trkpt>
      <trkpt lat="47.2931" lon="4.96877">
        <ele>404.421</ele>
        <time>2012-08-31T08:47:21Z</time>
      </trkpt>
      <trkpt lat="47.29308" lon="4.9688">
        <ele>403.566</ele>
        <time>2012-08-31T08:47:32Z</time>
      </trkpt>
      <trkpt lat="47.29307" lon="4.9688">
        <ele>401.432</ele>
        <time>2012-08-31T08:47:43Z</time>
      </trkpt>
      <trkpt lat="47.29307" lon="4.96877">
        <ele>401.275</ele>
        <time>2012-08-31T08:47:54Z</time>
      </trkpt>
      <trkpt lat="47.29303" lon="4.9687">
        <ele>401.737</ele>
        <time>2012-08-31T08:48:05Z</time>
      </trkpt>
      <trkpt lat="47.293" lon="4.96863">
        <ele>402.814</ele>
        <time>2012-08-31T08:48:16Z</time>
      </trkpt>
      <trkpt lat="47.29293" lon="4.96848">
        <ele>403.834</ele>
        <time>2012-08-31T08:48:27Z</time>
      </trkpt>
      <trkpt lat="47.29288" lon="4.96837">
        <ele>405.574</ele>
        <time>2012-08-31T08:48:38Z</time>
      </trkpt>
      <trkpt lat="47.29283" lon="4.96828">
        <ele>407.417</ele>
        <time>2012-08-31T08:48:49Z</time>
      </trkpt>
      <trkpt lat="47.29277" lon="4.96817">
        <ele>408.687</ele>
        <time>2012-08-31T08:49:00Z</time>
      </trkpt>
      <trkpt lat="47.2927" lon="4.96808">
        <ele>409.148</ele>
        <time>2012-08-31T08:49:11Z</time>
      </trkpt>
      <trkpt lat="47.2926" lon="4.96797">
        <ele>411.359</ele>
        <time>2012-08-31T08:49:22Z</time>
      </trkpt>
      <trkpt lat="47.29255" lon="4.96785">
        <ele>412.603</ele>
        <time>2012-08-31T08:49:33Z</time>
      </trkpt>
      <trkpt lat="47.2925" lon="4.96773">
        <ele>413.418</ele>
        <time>2012-08-31T08:49:44Z</time>
      </trkpt>
      <trkpt lat="47.29247" lon="4.96763">
        <ele>416.442</ele>
        <time>2012-08-31T08:49:55Z</time>
      </trkpt>
      <trkpt lat="47.29237" lon="4.9675">
        <ele>417.671</ele>
        <time>2012-08-31T08:50:06Z</time>
      </trkpt>
      <trkpt lat="47.29227" lon="4.96742">
        <ele>419.076</ele>
        <time>2012-08-31T08:50:17Z</time>
      </trkpt>
      <trkpt lat="47.29225" lon="4.96735">
        <ele>419.86</ele>
        <time>2012-08-31T08:50:28Z</time>
      </trkpt>
      <trkpt lat="47.29215" lon="4.9673">
        <ele>420.928</ele>
        <time>2012-08-31T08:50:39Z</time>
      </trkpt>
      <trkpt lat="47.29202" lon="4.96732">
        <ele>420.987</ele>
        <time>2012-08-31T08:50:50Z</time>
      </trkpt>
      <trkpt lat="47.2919" lon="4.96735">
        <ele>421.157</ele>
        <time>2012-08-31T08:51:01Z</time>
      </trkpt>
      <trkpt lat="47.2918" lon="4.96733">
        <ele>424.472</ele>
        <time>2012-08-31T08:51:12Z</time>
      </trkpt>
      <trkpt lat="47.29168" lon="4.96732">
        <ele>426.522</ele>
        <time>2012-08-31T08:51:23Z</time>
      </trkpt>
      <trkpt lat="47.29163" lon="4.9673">
        <ele>427.887</ele>
        <time>2012-08-31T08:51:34Z</time>
      </trkpt>
      <trkpt lat="47.29153" lon="4.96727">
        <ele>430.474</ele>
        <time>2012-08-31T08:51:45Z</time>
      </trkpt>
      <trkpt lat="47.29145" lon="4.96727">
        <ele>432.328</ele>
        <time>2012-08-31T08:51:56Z</time>
      </trkpt>
      <trkpt lat="47.29137" lon="4.96723">
        <ele>432.573</ele>
        <time>2012-08-31T08:52:07Z</time>
      </trkpt>
      <trkpt lat="47.2913" lon="4.96722">
        <ele>432.96</ele>
        <time>2012-08-31T08:52:18Z</time>
      </trkpt>
      <trkpt lat="47.29117" lon="4.96723">
        <ele>433.143</ele>
        <time>2012-08-31T08:52:29Z</time>
      </trkpt>
      <trkpt lat="47.29105" lon="4.96727">
        <ele>434.54</ele>
        <time>2012-08-31T08:52:40Z</time>
      </trkpt>
      <trkpt lat="47.29085" lon="4.96742">
        <ele>427.827</ele>
        <time>2012-08-31T08:52:51Z</time>
      </trkpt>
      <trkpt lat="47.29075" lon="4.96752">
        <ele>428.864</ele>
        <time>2012-08-31T08:53:02Z</time>
      </trkpt>
      <trkpt lat="47.29062" lon="4.9677">
        <ele>425.266</ele>
        <time>2012-08-31T08:53:13Z</time>
      </trkpt>
      <trkpt lat="47.29048" lon="4.96788">
        <ele>424.341</ele>
        <time>2012-08-31T08:53:24Z</time>
      </trkpt>
      <trkpt lat="47.29038" lon="4.96803">
        <ele>425.859</ele>
        <time>2012-08-31T08:53:35Z</time>
      </trkpt>
      <trkpt lat="47.29028" lon="4.9682">
        <ele>428.717</ele>
        <time>2012-08-31T08:53:46Z</time>
      </trkpt>
      <trkpt lat="47.29027" lon="4.96822">
        <ele>428.742</ele>
        <time>2012-08-31T08:53:57Z</time>
      </trkpt>
      <trkpt lat="47.2902" lon="4.96832">
        <ele>429.557</ele>
        <time>2012-08-31T08:54:08Z</time>
      </trkpt>
      <trkpt lat="47.29012" lon="4.96845">
        <ele>430.569</ele>
        <time>2012-08-31T08:54:19Z</time>
      </trkpt>
      <trkpt lat="47.29003" lon="4.96862">
        <ele>433.736</ele>
        <time>2012-08-31T08:54:30Z</time>
      </trkpt>
      <trkpt lat="47.28998" lon="4.96873">
        <ele>436.442</ele>
        <time>2012-08-31T08:54:41Z</time>
      </trkpt>
      <trkpt lat="47.28992" lon="4.9689">
        <ele>439.784</ele>
        <time>2012-08-31T08:54:52Z</time>
      </trkpt>
      <trkpt lat="47.28987" lon="4.9691">
        <ele>441.523</ele>
        <time>2012-08-31T08:55:03Z</time>
      </trkpt>
      <trkpt lat="47.28978" lon="4.96928">
        <ele>442.861</ele>
        <time>2012-08-31T08:55:14Z</time>
      </trkpt>
      <trkpt lat="47.28973" lon="4.96943">
        <ele>446.599</ele>
        <time>2012-08-31T08:55:25Z</time>
      </trkpt>
      <trkpt lat="47.28965" lon="4.96953">
        <ele>447.378</ele>
        <time>2012-08-31T08:55:36Z</time>
      </trkpt>
      <trkpt lat="47.28953" lon="4.96965">
        <ele>448.007</ele>
        <time>2012-08-31T08:55:47Z</time>
      </trkpt>
      <trkpt lat="47.28942" lon="4.96973">
        <ele>447.226</ele>
        <time>2012-08-31T08:55:58Z</time>
      </trkpt>
      <trkpt lat="47.28933" lon="4.96982">
        <ele>446.897</ele>
        <time>2012-08-31T08:56:09Z</time>
      </trkpt>
      <trkpt lat="47.28922" lon="4.96992">
        <ele>447.23</ele>
        <time>2012-08-31T08:56:20Z</time>
      </trkpt>
      <trkpt lat="47.28912" lon="4.97002">
        <ele>447.201</ele>
        <time>2012-08-31T08:56:31Z</time>
      </trkpt>
      <trkpt lat="47.28898" lon="4.97017">
        <ele>445.873</ele>
        <time>2012-08-31T08:56:42Z</time>
      </trkpt>
      <trkpt lat="47.28887" lon="4.97032">
        <ele>444.172</ele>
        <time>2012-08-31T08:56:53Z</time>
      </trkpt>
      <trkpt lat="47.28875" lon="4.97045">
        <ele>445.483</ele>
        <time>2012-08-31T08:57:04Z</time>
      </trkpt>
      <trkpt lat="47.28862" lon="4.97057">
        <ele>443.029</ele>
        <time>2012-08-31T08:57:15Z</time>
      </trkpt>
      <trkpt lat="47.2885" lon="4.97072">
        <ele>441.064</ele>
        <time>2012-08-31T08:57:26Z</time>
      </trkpt>
      <trkpt lat="47.28842" lon="4.9708">
        <ele>438.935</ele>
        <time>2012-08-31T08:57:37Z</time>
      </trkpt>
      <trkpt lat="47.2883" lon="4.97093">
        <ele>435.599</ele>
        <time>2012-08-31T08:57:48Z</time>
      </trkpt>
      <trkpt lat="47.28817" lon="4.97105">
        <ele>433.834</ele>
        <time>2012-08-31T08:57:59Z</time>
      </trkpt>
      <trkpt lat="47.28805" lon="4.97113">
        <ele>433.161</ele>
        <time>2012-08-31T08:58:10Z</time>
      </trkpt>
      <trkpt lat="47.28793" lon="4.97117">
        <ele>432.878</ele>
        <time>2012-08-31T08:58:21Z</time>
      </trkpt>
      <trkpt lat="47.28783" lon="4.97122">
        <ele>434.119</ele>
        <time>2012-08-31T08:58:32Z</time>
      </trkpt>
      <trkpt lat="47.2877" lon="4.97132">
        <ele>432.808</ele>
        <time>2012-08-31T08:58:43Z</time>
      </trkpt>
      <trkpt lat="47.2876" lon="4.97142">
        <ele>433.457</ele>
        <time>2012-08-31T08:58:54Z</time>
      </trkpt>
      <trkpt lat="47.28748" lon="4.97155">
        <ele>432.638</ele>
        <time>2012-08-31T08:59:05Z</time>
      </trkpt>
      <trkpt lat="47.28737" lon="4.97167">
        <ele>433.607</ele>
        <time>2012-08-31T08:59:16Z</time>
      </trkpt>
      <trkpt lat="47.28732" lon="4.97177">
        <ele>432.004</ele>
        <time>2012-08-31T08:59:27Z</time>
      </trkpt>
      <trkpt lat="47.28727" lon="4.97183">
        <ele>431.265</ele>
        <time>2012-08-31T08:59:38Z</time>
      </trkpt>
      <trkpt lat="47.28723" lon="4.9719">
        <ele>430.802</ele>
        <time>2012-08-31T08:59:49Z</time>
      </trkpt>
      <trkpt lat="47.28713" lon="4.972">
        <ele>429.595</ele>
        <time>2012-08-31T09:00:00Z</time>
      </trkpt>
      <trkpt lat="47.28703" lon="4.97217">
        <ele>429.224</ele>
        <time>2012-08-31T09:00:11Z</time>
      </trkpt>
      <trkpt lat="47.28698" lon="4.97232">
        <ele>429.08</ele>
        <time>2012-08-31T09:00:22Z</time>
      </trkpt>
      <trkpt lat="47.28688" lon="4.97247">
        <ele>429.148</ele>
        <time>2012-08-31T09:00:33Z</time>
      </trkpt>
      <trkpt lat="47.28677" lon="4.97265">
        <ele>429.155</ele>
        <time>2012-08-31T09:00:44Z</time>
      </trkpt>
      <trkpt lat="47.28668" lon="4.97282">
        <ele>427.955</ele>
        <time>2012-08-31T09:00:55Z</time>
      </trkpt>
      <trkpt lat="47.28663" lon="4.97302">
        <ele>427.815</ele>
        <time>2012-08-31T09:01:06Z</time>
      </trkpt>
      <trkpt lat="47.28657" lon="4.97322">
        <ele>427.334</ele>
        <time>2012-08-31T09:01:17Z</time>
      </trkpt>
      <trkpt lat="47.28653" lon="4.97338">
        <ele>425.98</ele>
        <time>2012-08-31T09:01:28Z</time>
      </trkpt>
      <trkpt lat="47.28647" lon="4.97362">
        <ele>424.184</ele>
        <time>2012-08-31T09:01:39Z</time>
      </trkpt>
      <trkpt lat="47.28642" lon="4.97378">
        <ele>423.944</ele>
        <time>2012-08-31T09:01:50Z</time>
      </trkpt>
      <trkpt lat="47.28638" lon="4.97388">
        <ele>423.923</ele>
        <time>2012-08-31T09:02:01Z</time>
      </trkpt>
      <trkpt lat="47.28638" lon="4.97405">
        <ele>418.688</ele>
        <time>2012-08-31T09:02:12Z</time>
      </trkpt>
      <trkpt lat="47.28637" lon="4.97423">
        <ele>412.512</ele>
        <time>2012-08-31T09:02:23Z</time>
      </trkpt>
      <trkpt lat="47.2863" lon="4.97442">
        <ele>411.896</ele>
        <time>2012-08-31T09:02:34Z</time>
      </trkpt>
      <trkpt lat="47.2862" lon="4.97455">
        <ele>412.147</ele>
        <time>2012-08-31T09:02:45Z</time>
      </trkpt>
      <trkpt lat="47.28615" lon="4.97467">
        <ele>410.764</ele>
        <time>2012-08-31T09:02:56Z</time>
      </trkpt>
      <trkpt lat="47.28612" lon="4.97482">
        <ele>411.42</ele>
        <time>2012-08-31T09:03:07Z</time>
      </trkpt>
      <trkpt lat="47.2861" lon="4.97493">
        <ele>411.779</ele>
        <time>2012-08-31T09:03:18Z</time>
      </trkpt>
      <trkpt lat="47.28607" lon="4.97502">
        <ele>412.172</ele>
        <time>2012-08-31T09:03:29Z</time>
      </trkpt>
      <trkpt lat="47.28602" lon="4.97515">
        <ele>412.4</ele>
        <time>2012-08-31T09:03:40Z</time>
      </trkpt>
      <trkpt lat="47.28598" lon="4.97525">
        <ele>410.99</ele>
        <time>2012-08-31T09:03:51Z</time>
      </trkpt>
      <trkpt lat="47.28593" lon="4.97542">
        <ele>409</ele>
        <time>2012-08-31T09:04:02Z</time>
      </trkpt>
      <trkpt lat="47.28588" lon="4.9755">
        <ele>408.8</ele>
        <time>2012-08-31T09:04:13Z</time>
      </trkpt>
      <trkpt lat="47.28582" lon="4.97563">
        <ele>408.039</ele>
        <time>2012-08-31T09:04:24Z</time>
      </trkpt>
      <trkpt lat="47.28575" lon="4.97577">
        <ele>408.251</ele>
        <time>2012-08-31T09:04:35Z</time>
      </trkpt>
      <trkpt lat="47.28568" lon="4.97588">
        <ele>406.733</ele>
        <time>2012-08-31T09:04:46Z</time>
      </trkpt>
      <trkpt lat="47.28553" lon="4.97612">
        <ele>401.751</ele>
        <time>2012-08-31T09:04:57Z</time>
      </trkpt>
      <trkpt lat="47.28545" lon="4.97635">
        <ele>398.805</ele>
        <time>2012-08-31T09:05:08Z</time>
      </trkpt>
      <trkpt lat="47.28538" lon="4.97658">
        <ele>394.705</ele>
        <time>2012-08-31T09:05:19Z</time>
      </trkpt>
      <trkpt lat="47.28532" lon="4.9768">
        <ele>392.781</ele>
        <time>2012-08-31T09:05:30Z</time>
      </trkpt>
      <trkpt lat="47.28525" lon="4.97695">
        <ele>390.229</ele>
        <time>2012-08-31T09:05:41Z</time>
      </trkpt>
      <trkpt lat="47.28518" lon="4.97708">
        <ele>388.318</ele>
        <time>2012-08-31T09:05:52Z</time>
      </trkpt>
      <trkpt lat="47.28512" lon="4.9772">
        <ele>387.735</ele>
        <time>2012-08-31T09:06:03Z</time>
      </trkpt>
      <trkpt lat="47.28505" lon="4.9773">
        <ele>388.159</ele>
        <time>2012-08-31T09:06:14Z</time>
      </trkpt>
      <trkpt lat="47.285" lon="4.9774">
        <ele>386.25</ele>
        <time>2012-08-31T09:06:25Z</time>
      </trkpt>
      <trkpt lat="47.28498" lon="4.97747">
        <ele>385.457</ele>
        <time>2012-08-31T09:06:36Z</time>
      </trkpt>
      <trkpt lat="47.28495" lon="4.97753">
        <ele>384.506</ele>
        <time>2012-08-31T09:06:47Z</time>
      </trkpt>
      <trkpt lat="47.28495" lon="4.9776">
        <ele>383.575</ele>
        <time>2012-08-31T09:06:58Z</time>
      </trkpt>
      <trkpt lat="47.2849" lon="4.97772">
        <ele>382.565</ele>
        <time>2012-08-31T09:07:09Z</time>
      </trkpt>
      <trkpt lat="47.28487" lon="4.97783">
        <ele>382.519</ele>
        <time>2012-08-31T09:07:20Z</time>
      </trkpt>
      <trkpt lat="47.28485" lon="4.97788">
        <ele>381.635</ele>
        <time>2012-08-31T09:07:31Z</time>
      </trkpt>
      <trkpt lat="47.2848" lon="4.978">
        <ele>381.349</ele>
        <time>2012-08-31T09:07:42Z</time>
      </trkpt>
      <trkpt lat="47.28477" lon="4.97807">
        <ele>381.576</ele>
        <time>2012-08-31T09:07:53Z</time>
      </trkpt>
      <trkpt lat="47.28472" lon="4.97818">
        <ele>380.74</ele>
        <time>2012-08-31T09:08:04Z</time>
      </trkpt>
      <trkpt lat="47.2847" lon="4.97827">
        <ele>379.096</ele>
        <time>2012-08-31T09:08:15Z</time>
      </trkpt>
      <trkpt lat="47.28467" lon="4.97833">
        <ele>377.211</ele>
        <time>2012-08-31T09:08:26Z</time>
      </trkpt>
      <trkpt lat="47.28462" lon="4.97843">
        <ele>375.701</ele>
        <time>2012-08-31T09:08:37Z</time>
      </trkpt>
      <trkpt lat="47.28457" lon="4.97858">
        <ele>375.032</ele>
        <time>2012-08-31T09:08:48Z</time>
      </trkpt>
      <trkpt lat="47.2845" lon="4.97872">
        <ele>373.883</ele>
        <time>2012-08-31T09:08:59Z</time>
      </trkpt>
      <trkpt lat="47.28447" lon="4.97882">
        <ele>372.627</ele>
        <time>2012-08-31T09:09:10Z</time>
      </trkpt>
      <trkpt lat="47.28445" lon="4.97885">
        <ele>371.916</ele>
        <time>2012-08-31T09:09:21Z</time>
      </trkpt>
      <trkpt lat="47.28442" lon="4.97893">
        <ele>370.709</ele>
        <time>2012-08-31T09:09:32Z</time>
      </trkpt>
      <trkpt lat="47.28437" lon="4.97905">
        <ele>368.033</ele>
        <time>2012-08-31T09:09:43Z</time>
      </trkpt>
      <trkpt lat="47.2843" lon="4.97925">
        <ele>362.872</ele>
        <time>2012-08-31T09:09:54Z</time>
      </trkpt>
      <trkpt lat="47.28427" lon="4.97932">
        <ele>361.877</ele>
        <time>2012-08-31T09:10:05Z</time>
      </trkpt>
      <trkpt lat="47.28423" lon="4.9794">
        <ele>360.566</ele>
        <time>2012-08-31T09:10:16Z</time>
      </trkpt>
      <trkpt lat="47.28413" lon="4.97955">
        <ele>360.898</ele>
        <time>2012-08-31T09:10:27Z</time>
      </trkpt>
      <trkpt lat="47.28408" lon="4.97968">
        <ele>358.975</ele>
        <time>2012-08-31T09:10:38Z</time>
      </trkpt>
      <trkpt lat="47.28403" lon="4.97988">
        <ele>355.715</ele>
        <time>2012-08-31T09:10:49Z</time>
      </trkpt>
      <trkpt lat="47.28395" lon="4.98003">
        <ele>352.695</ele>
        <time>2012-08-31T09:11:00Z</time>
      </trkpt>
      <trkpt lat="47.28388" lon="4.9802">
        <ele>349.241</ele>
        <time>2012-08-31T09:11:11Z</time>
      </trkpt>
      <trkpt lat="47.28385" lon="4.98033">
        <ele>348.692</ele>
        <time>2012-08-31T09:11:22Z</time>
      </trkpt>
      <trkpt lat="47.28382" lon="4.98058">
        <ele>345.064</ele>
        <time>2012-08-31T09:11:33Z</time>
      </trkpt>
      <trkpt lat="47.28382" lon="4.9808">
        <ele>342.098</ele>
        <time>2012-08-31T09:11:44Z</time>
      </trkpt>
      <trkpt lat="47.28378" lon="4.981">
        <ele>339.949</ele>
        <time>2012-08-31T09:11:55Z</time>
      </trkpt>
      <trkpt lat="47.28383" lon="4.9812">
        <ele>338.736</ele>
        <time>2012-08-31T09:12:06Z</time>
      </trkpt>
      <trkpt lat="47.28388" lon="4.98138">
        <ele>336.744</ele>
        <time>2012-08-31T09:12:17Z</time>
      </trkpt>
      <trkpt lat="47.28395" lon="4.98158">
        <ele>333.631</ele>
        <time>2012-08-31T09:12:28Z</time>
      </trkpt>
      <trkpt lat="47.28402" lon="4.98168">
        <ele>331.378</ele>
        <time>2012-08-31T09:12:39Z</time>
      </trkpt>
      <trkpt lat="47.2841" lon="4.98183">
        <ele>328.556</ele>
        <time>2012-08-31T09:12:50Z</time>
      </trkpt>
      <trkpt lat="47.28418" lon="4.98197">
        <ele>326.515</ele>
        <time>2012-08-31T09:13:01Z</time>
      </trkpt>
      <trkpt lat="47.2842" lon="4.98212">
        <ele>325.264</ele>
        <time>2012-08-31T09:13:12Z</time>
      </trkpt>
      <trkpt lat="47.28417" lon="4.98225">
        <ele>327.243</ele>
        <time>2012-08-31T09:13:23Z</time>
      </trkpt>
      <trkpt lat="47.2841" lon="4.98237">
        <ele>329.211</ele>
        <time>2012-08-31T09:13:34Z</time>
      </trkpt>
      <trkpt lat="47.2841" lon="4.9824">
        <ele>328.575</ele>
        <time>2012-08-31T09:13:45Z</time>
      </trkpt>
      <trkpt lat="47.2841" lon="4.9824">
        <ele>328.575</ele>
        <time>2012-08-31T09:13:56Z</time>
      </trkpt>
      <trkpt lat="47.2841" lon="4.9824">
        <ele>328.431</ele>
        <time>2012-08-31T09:14:07Z</time>
      </trkpt>
      <trkpt lat="47.2841" lon="4.9824">
        <ele>328.431</ele>
        <time>2012-08-31T09:14:18Z</time>
      </trkpt>
      <trkpt lat="47.28412" lon="4.98242">
        <ele>328.361</ele>
        <time>2012-08-31T09:14:29Z</time>
      </trkpt>
      <trkpt lat="47.28412" lon="4.98242">
        <ele>328.292</ele>
        <time>2012-08-31T09:14:40Z</time>
      </trkpt>
      <trkpt lat="47.28408" lon="4.98242">
        <ele>328.62</ele>
        <time>2012-08-31T09:14:51Z</time>
      </trkpt>
      <trkpt lat="47.28407" lon="4.9825">
        <ele>327.635</ele>
        <time>2012-08-31T09:15:02Z</time>
      </trkpt>
      <trkpt lat="47.28402" lon="4.98268">
        <ele>325.859</ele>
        <time>2012-08-31T09:15:13Z</time>
      </trkpt>
      <trkpt lat="47.28393" lon="4.98288">
        <ele>325.21</ele>
        <time>2012-08-31T09:15:24Z</time>
      </trkpt>
      <trkpt lat="47.28385" lon="4.98303">
        <ele>323.244</ele>
        <time>2012-08-31T09:15:35Z</time>
      </trkpt>
      <trkpt lat="47.2838" lon="4.98308">
        <ele>322.572</ele>
        <time>2012-08-31T09:15:46Z</time>
      </trkpt>
      <trkpt lat="47.28372" lon="4.9831">
        <ele>323.688</ele>
        <time>2012-08-31T09:15:57Z</time>
      </trkpt>
      <trkpt lat="47.2836" lon="4.9832">
        <ele>324.724</ele>
        <time>2012-08-31T09:16:08Z</time>
      </trkpt>
      <trkpt lat="47.28348" lon="4.98328">
        <ele>327.432</ele>
        <time>2012-08-31T09:16:19Z</time>
      </trkpt>
      <trkpt lat="47.28338" lon="4.98337">
        <ele>328.612</ele>
        <time>2012-08-31T09:16:30Z</time>
      </trkpt>
      <trkpt lat="47.28328" lon="4.98345">
        <ele>328.834</ele>
        <time>2012-08-31T09:16:41Z</time>
      </trkpt>
      <trkpt lat="47.28317" lon="4.98357">
        <ele>327.043</ele>
        <time>2012-08-31T09:16:52Z</time>
      </trkpt>
      <trkpt lat="47.28305" lon="4.98368">
        <ele>326.793</ele>
        <time>2012-08-31T09:17:03Z</time>
      </trkpt>
      <trkpt lat="47.28295" lon="4.98382">
        <ele>327.91</ele>
        <time>2012-08-31T09:17:14Z</time>
      </trkpt>
      <trkpt lat="47.28287" lon="4.98402">
        <ele>326.66</ele>
        <time>2012-08-31T09:17:25Z</time>
      </trkpt>
      <trkpt lat="47.28282" lon="4.98425">
        <ele>324.156</ele>
        <time>2012-08-31T09:17:36Z</time>
      </trkpt>
      <trkpt lat="47.28278" lon="4.98447">
        <ele>322.695</ele>
        <time>2012-08-31T09:17:47Z</time>
      </trkpt>
      <trkpt lat="47.28282" lon="4.98457">
        <ele>320.347</ele>
        <time>2012-08-31T09:17:58Z</time>
      </trkpt>
      <trkpt lat="47.28292" lon="4.98455">
        <ele>318.199</ele>
        <time>2012-08-31T09:18:09Z</time>
      </trkpt>
      <trkpt lat="47.28297" lon="4.98452">
        <ele>316.483</ele>
        <time>2012-08-31T09:18:20Z</time>
      </trkpt>
      <trkpt lat="47.28307" lon="4.98443">
        <ele>315.233</ele>
        <time>2012-08-31T09:18:31Z</time>
      </trkpt>
      <trkpt lat="47.28317" lon="4.98437">
        <ele>315.659</ele>
        <time>2012-08-31T09:18:42Z</time>
      </trkpt>
      <trkpt lat="47.28328" lon="4.98428">
        <ele>316.191</ele>
        <time>2012-08-31T09:18:53Z</time>
      </trkpt>
      <trkpt lat="47.2834" lon="4.98427">
        <ele>318.328</ele>
        <time>2012-08-31T09:19:04Z</time>
      </trkpt>
      <trkpt lat="47.2835" lon="4.98428">
        <ele>321.54</ele>
        <time>2012-08-31T09:19:15Z</time>
      </trkpt>
      <trkpt lat="47.28357" lon="4.98437">
        <ele>325.683</ele>
        <time>2012-08-31T09:19:26Z</time>
      </trkpt>
      <trkpt lat="47.28362" lon="4.98447">
        <ele>329.253</ele>
        <time>2012-08-31T09:19:37Z</time>
      </trkpt>
      <trkpt lat="47.28363" lon="4.9846">
        <ele>331.255</ele>
        <time>2012-08-31T09:19:48Z</time>
      </trkpt>
      <trkpt lat="47.28363" lon="4.98475">
        <ele>333.243</ele>
        <time>2012-08-31T09:19:59Z</time>
      </trkpt>
      <trkpt lat="47.2836" lon="4.98493">
        <ele>334.67</ele>
        <time>2012-08-31T09:20:10Z</time>
      </trkpt>
      <trkpt lat="47.28357" lon="4.98508">
        <ele>335.544</ele>
        <time>2012-08-31T09:20:21Z</time>
      </trkpt>
      <trkpt lat="47.28353" lon="4.98525">
        <ele>337.226</ele>
        <time>2012-08-31T09:20:32Z</time>
      </trkpt>
      <trkpt lat="47.2835" lon="4.98542">
        <ele>337.921</ele>
        <time>2012-08-31T09:20:43Z</time>
      </trkpt>
      <trkpt lat="47.28345" lon="4.98555">
        <ele>338.778</ele>
        <time>2012-08-31T09:20:54Z</time>
      </trkpt>
      <trkpt lat="47.28342" lon="4.98573">
        <ele>338.486</ele>
        <time>2012-08-31T09:21:05Z</time>
      </trkpt>
      <trkpt lat="47.28342" lon="4.98587">
        <ele>336.602</ele>
        <time>2012-08-31T09:21:16Z</time>
      </trkpt>
      <trkpt lat="47.28338" lon="4.98607">
        <ele>334.951</ele>
        <time>2012-08-31T09:21:27Z</time>
      </trkpt>
      <trkpt lat="47.28337" lon="4.98622">
        <ele>333.305</ele>
        <time>2012-08-31T09:21:38Z</time>
      </trkpt>
      <trkpt lat="47.28338" lon="4.98638">
        <ele>333.595</ele>
        <time>2012-08-31T09:21:49Z</time>
      </trkpt>
      <trkpt lat="47.28345" lon="4.98657">
        <ele>334.479</ele>
        <time>2012-08-31T09:22:00Z</time>
      </trkpt>
      <trkpt lat="47.28348" lon="4.98672">
        <ele>334.439</ele>
        <time>2012-08-31T09:22:11Z</time>
      </trkpt>
      <trkpt lat="47.2835" lon="4.98678">
        <ele>332.916</ele>
        <time>2012-08-31T09:22:22Z</time>
      </trkpt>
      <trkpt lat="47.28343" lon="4.98692">
        <ele>330.908</ele>
        <time>2012-08-31T09:22:33Z</time>
      </trkpt>
      <trkpt lat="47.28338" lon="4.987">
        <ele>330.1</ele>
        <time>2012-08-31T09:22:44Z</time>
      </trkpt>
      <trkpt lat="47.28335" lon="4.9872">
        <ele>330.739</ele>
        <time>2012-08-31T09:22:55Z</time>
      </trkpt>
      <trkpt lat="47.28328" lon="4.98735">
        <ele>331.106</ele>
        <time>2012-08-31T09:23:06Z</time>
      </trkpt>
      <trkpt lat="47.28327" lon="4.98753">
        <ele>331.345</ele>
        <time>2012-08-31T09:23:17Z</time>
      </trkpt>
      <trkpt lat="47.28328" lon="4.98767">
        <ele>331.846</ele>
        <time>2012-08-31T09:23:28Z</time>
      </trkpt>
      <trkpt lat="47.28332" lon="4.98783">
        <ele>331.424</ele>
        <time>2012-08-31T09:23:39Z</time>
      </trkpt>
      <trkpt lat="47.28333" lon="4.98803">
        <ele>331.84</ele>
        <time>2012-08-31T09:23:50Z</time>
      </trkpt>
      <trkpt lat="47.28335" lon="4.98822">
        <ele>331.696</ele>
        <time>2012-08-31T09:24:01Z</time>
      </trkpt>
      <trkpt lat="47.2834" lon="4.9884">
        <ele>332.089</ele>
        <time>2012-08-31T09:24:12Z</time>
      </trkpt>
      <trkpt lat="47.28345" lon="4.9886">
        <ele>332.435</ele>
        <time>2012-08-31T09:24:23Z</time>
      </trkpt>
      <trkpt lat="47.28352" lon="4.98875">
        <ele>332.572</ele>
        <time>2012-08-31T09:24:34Z</time>
      </trkpt>
      <trkpt lat="47.28355" lon="4.98893">
        <ele>334.036</ele>
        <time>2012-08-31T09:24:45Z</time>
      </trkpt>
      <trkpt lat="47.28363" lon="4.98907">
        <ele>335.267</ele>
        <time>2012-08-31T09:24:56Z</time>
      </trkpt>
      <trkpt lat="47.28368" lon="4.98917">
        <ele>335.195</ele>
        <time>2012-08-31T09:25:07Z</time>
      </trkpt>
      <trkpt lat="47.28372" lon="4.9893">
        <ele>335.185</ele>
        <time>2012-08-31T09:25:18Z</time>
      </trkpt>
      <trkpt lat="47.28373" lon="4.98942">
        <ele>335.404</ele>
        <time>2012-08-31T09:25:29Z</time>
      </trkpt>
      <trkpt lat="47.28378" lon="4.9896">
        <ele>338</ele>
        <time>2012-08-31T09:25:40Z</time>
      </trkpt>
      <trkpt lat="47.28382" lon="4.98977">
        <ele>340.228</ele>
        <time>2012-08-31T09:25:51Z</time>
      </trkpt>
      <trkpt lat="47.28385" lon="4.98993">
        <ele>339.611</ele>
        <time>2012-08-31T09:26:02Z</time>
      </trkpt>
      <trkpt lat="47.28385" lon="4.99005">
        <ele>340.193</ele>
        <time>2012-08-31T09:26:13Z</time>
      </trkpt>
      <trkpt lat="47.2839" lon="4.99025">
        <ele>341.463</ele>
        <time>2012-08-31T09:26:24Z</time>
      </trkpt>
      <trkpt lat="47.28393" lon="4.99045">
        <ele>341.754</ele>
        <time>2012-08-31T09:26:35Z</time>
      </trkpt>
      <trkpt lat="47.284" lon="4.99065">
        <ele>342.419</ele>
        <time>2012-08-31T09:26:46Z</time>
      </trkpt>
      <trkpt lat="47.28403" lon="4.99082">
        <ele>341.979</ele>
        <time>2012-08-31T09:26:57Z</time>
      </trkpt>
      <trkpt lat="47.28403" lon="4.99095">
        <ele>341.283</ele>
        <time>2012-08-31T09:27:08Z</time>
      </trkpt>
      <trkpt lat="47.28408" lon="4.99113">
        <ele>341.368</ele>
        <time>2012-08-31T09:27:19Z</time>
      </trkpt>
      <trkpt lat="47.2841" lon="4.99132">
        <ele>342.395</ele>
        <time>2012-08-31T09:27:30Z</time>
      </trkpt>
      <trkpt lat="47.28417" lon="4.99152">
        <ele>344.598</ele>
        <time>2012-08-31T09:27:41Z</time>
      </trkpt>
      <trkpt lat="47.28418" lon="4.9916">
        <ele>345.806</ele>
        <time>2012-08-31T09:27:52Z</time>
      </trkpt>
      <trkpt lat="47.2842" lon="4.99175">
        <ele>343.013</ele>
        <time>2012-08-31T09:28:03Z</time>
      </trkpt>
      <trkpt lat="47.28422" lon="4.99188">
        <ele>340.888</ele>
        <time>2012-08-31T09:28:14Z</time>
      </trkpt>
      <trkpt lat="47.28427" lon="4.992">
        <ele>338.384</ele>
        <time>2012-08-31T09:28:25Z</time>
      </trkpt>
      <trkpt lat="47.28435" lon="4.99208">
        <ele>333.8</ele>
        <time>2012-08-31T09:28:36Z</time>
      </trkpt>
      <trkpt lat="47.28438" lon="4.99212">
        <ele>331.954</ele>
        <time>2012-08-31T09:28:47Z</time>
      </trkpt>
      <trkpt lat="47.28438" lon="4.99212">
        <ele>331.954</ele>
        <time>2012-08-31T09:28:58Z</time>
      </trkpt>
      <trkpt lat="47.28438" lon="4.9921">
        <ele>331.901</ele>
        <time>2012-08-31T09:29:09Z</time>
      </trkpt>
      <trkpt lat="47.28438" lon="4.9921">
        <ele>331.63</ele>
        <time>2012-08-31T09:29:20Z</time>
      </trkpt>
      <trkpt lat="47.2844" lon="4.9921">
        <ele>331.608</ele>
        <time>2012-08-31T09:29:31Z</time>
      </trkpt>
      <trkpt lat="47.2844" lon="4.9921">
        <ele>331.353</ele>
        <time>2012-08-31T09:29:42Z</time>
      </trkpt>
      <trkpt lat="47.2844" lon="4.9921">
        <ele>331.557</ele>
        <time>2012-08-31T09:29:53Z</time>
      </trkpt>
      <trkpt lat="47.2844" lon="4.99213">
        <ele>330.588</ele>
        <time>2012-08-31T09:30:04Z</time>
      </trkpt>
      <trkpt lat="47.28442" lon="4.9922">
        <ele>330.886</ele>
        <time>2012-08-31T09:30:15Z</time>
      </trkpt>
      <trkpt lat="47.28447" lon="4.9923">
        <ele>332.606</ele>
        <time>2012-08-31T09:30:26Z</time>
      </trkpt>
      <trkpt lat="47.28448" lon="4.99237">
        <ele>335.029</ele>
        <time>2012-08-31T09:30:37Z</time>
      </trkpt>
      <trkpt lat="47.28457" lon="4.99252">
        <ele>335.328</ele>
        <time>2012-08-31T09:30:48Z</time>
      </trkpt>
      <trkpt lat="47.28462" lon="4.99263">
        <ele>335.926</ele>
        <time>2012-08-31T09:30:59Z</time>
      </trkpt>
      <trkpt lat="47.28467" lon="4.99282">
        <ele>337.891</ele>
        <time>2012-08-31T09:31:10Z</time>
      </trkpt>
      <trkpt lat="47.28473" lon="4.99293">
        <ele>339.896</ele>
        <time>2012-08-31T09:31:21Z</time>
      </trkpt>
      <trkpt lat="47.28477" lon="4.99307">
        <ele>340.133</ele>
        <time>2012-08-31T09:31:32Z</time>
      </trkpt>
      <trkpt lat="47.28483" lon="4.99318">
        <ele>341.352</ele>
        <time>2012-08-31T09:31:43Z</time>
      </trkpt>
      <trkpt lat="47.28487" lon="4.99325">
        <ele>341.075</ele>
        <time>2012-08-31T09:31:54Z</time>
      </trkpt>
      <trkpt lat="47.2849" lon="4.9933">
        <ele>341.567</ele>
        <time>2012-08-31T09:32:05Z</time>
      </trkpt>
      <trkpt lat="47.28493" lon="4.99337">
        <ele>340.524</ele>
        <time>2012-08-31T09:32:16Z</time>
      </trkpt>
      <trkpt lat="47.285" lon="4.99352">
        <ele>340.392</ele>
        <time>2012-08-31T09:32:27Z</time>
      </trkpt>
      <trkpt lat="47.28507" lon="4.99362">
        <ele>340.59</ele>
        <time>2012-08-31T09:32:38Z</time>
      </trkpt>
      <trkpt lat="47.28508" lon="4.99368">
        <ele>340.248</ele>
        <time>2012-08-31T09:32:49Z</time>
      </trkpt>
      <trkpt lat="47.28512" lon="4.99373">
        <ele>339.458</ele>
        <time>2012-08-31T09:33:00Z</time>
      </trkpt>
      <trkpt lat="47.28515" lon="4.9938">
        <ele>340.767</ele>
        <time>2012-08-31T09:33:11Z</time>
      </trkpt>
      <trkpt lat="47.28523" lon="4.9939">
        <ele>340.982</ele>
        <time>2012-08-31T09:33:22Z</time>
      </trkpt>
      <trkpt lat="47.28532" lon="4.994">
        <ele>339.78</ele>
        <time>2012-08-31T09:33:33Z</time>
      </trkpt>
      <trkpt lat="47.28542" lon="4.9941">
        <ele>338.064</ele>
        <time>2012-08-31T09:33:44Z</time>
      </trkpt>
      <trkpt lat="47.28547" lon="4.99422">
        <ele>339.768</ele>
        <time>2012-08-31T09:33:55Z</time>
      </trkpt>
      <trkpt lat="47.28552" lon="4.9943">
        <ele>336.423</ele>
        <time>2012-08-31T09:34:06Z</time>
      </trkpt>
      <trkpt lat="47.28563" lon="4.99447">
        <ele>333.594</ele>
        <time>2012-08-31T09:34:17Z</time>
      </trkpt>
      <trkpt lat="47.28573" lon="4.99458">
        <ele>333.258</ele>
        <time>2012-08-31T09:34:28Z</time>
      </trkpt>
      <trkpt lat="47.28587" lon="4.99473">
        <ele>330.823</ele>
        <time>2012-08-31T09:34:39Z</time>
      </trkpt>
      <trkpt lat="47.28597" lon="4.9949">
        <ele>331.499</ele>
        <time>2012-08-31T09:34:50Z</time>
      </trkpt>
      <trkpt lat="47.28605" lon="4.99495">
        <ele>331.486</ele>
        <time>2012-08-31T09:35:01Z</time>
      </trkpt>
      <trkpt lat="47.28618" lon="4.99502">
        <ele>329.95</ele>
        <time>2012-08-31T09:35:12Z</time>
      </trkpt>
      <trkpt lat="47.28632" lon="4.99508">
        <ele>325.216</ele>
        <time>2012-08-31T09:35:23Z</time>
      </trkpt>
      <trkpt lat="47.28637" lon="4.99515">
        <ele>323.673</ele>
        <time>2012-08-31T09:35:34Z</time>
      </trkpt>
      <trkpt lat="47.2865" lon="4.99525">
        <ele>328.193</ele>
        <time>2012-08-31T09:35:45Z</time>
      </trkpt>
      <trkpt lat="47.28663" lon="4.99527">
        <ele>330.043</ele>
        <time>2012-08-31T09:35:56Z</time>
      </trkpt>
      <trkpt lat="47.28668" lon="4.9953">
        <ele>328.785</ele>
        <time>2012-08-31T09:36:07Z</time>
      </trkpt>
      <trkpt lat="47.28678" lon="4.99545">
        <ele>325.8</ele>
        <time>2012-08-31T09:36:18Z</time>
      </trkpt>
      <trkpt lat="47.28703" lon="4.9956">
        <ele>321.493</ele>
        <time>2012-08-31T09:36:29Z</time>
      </trkpt>
      <trkpt lat="47.28713" lon="4.99568">
        <ele>320.573</ele>
        <time>2012-08-31T09:36:40Z</time>
      </trkpt>
      <trkpt lat="47.2872" lon="4.99572">
        <ele>320.674</ele>
        <time>2012-08-31T09:36:51Z</time>
      </trkpt>
      <trkpt lat="47.2873" lon="4.99577">
        <ele>321.432</ele>
        <time>2012-08-31T09:37:02Z</time>
      </trkpt>
      <trkpt lat="47.28745" lon="4.99582">
        <ele>321.018</ele>
        <time>2012-08-31T09:37:13Z</time>
      </trkpt>
      <trkpt lat="47.28757" lon="4.99588">
        <ele>319.621</ele>
        <time>2012-08-31T09:37:24Z</time>
      </trkpt>
      <trkpt lat="47.2877" lon="4.9959">
        <ele>317.14</ele>
        <time>2012-08-31T09:37:35Z</time>
      </trkpt>
      <trkpt lat="47.28778" lon="4.99595">
        <ele>319.216</ele>
        <time>2012-08-31T09:37:46Z</time>
      </trkpt>
      <trkpt lat="47.28787" lon="4.99602">
        <ele>317.433</ele>
        <time>2012-08-31T09:37:57Z</time>
      </trkpt>
      <trkpt lat="47.28803" lon="4.99605">
        <ele>315.406</ele>
        <time>2012-08-31T09:38:08Z</time>
      </trkpt>
      <trkpt lat="47.28815" lon="4.99602">
        <ele>314.642</ele>
        <time>2012-08-31T09:38:19Z</time>
      </trkpt>
      <trkpt lat="47.28815" lon="4.996">
        <ele>314.563</ele>
        <time>2012-08-31T09:38:30Z</time>
      </trkpt>
      <trkpt lat="47.2882" lon="4.99597">
        <ele>314.071</ele>
        <time>2012-08-31T09:38:41Z</time>
      </trkpt>
      <trkpt lat="47.28827" lon="4.99587">
        <ele>313.433</ele>
        <time>2012-08-31T09:38:52Z</time>
      </trkpt>
      <trkpt lat="47.28828" lon="4.9958">
        <ele>315.38</ele>
        <time>2012-08-31T09:39:03Z</time>
      </trkpt>
      <trkpt lat="47.28828" lon="4.99568">
        <ele>317.132</ele>
        <time>2012-08-31T09:39:14Z</time>
      </trkpt>
      <trkpt lat="47.28828" lon="4.99555">
        <ele>320.317</ele>
        <time>2012-08-31T09:39:25Z</time>
      </trkpt>
      <trkpt lat="47.2883" lon="4.99537">
        <ele>321.751</ele>
        <time>2012-08-31T09:39:36Z</time>
      </trkpt>
      <trkpt lat="47.28832" lon="4.9953">
        <ele>323.954</ele>
        <time>2012-08-31T09:39:47Z</time>
      </trkpt>
      <trkpt lat="47.28837" lon="4.99518">
        <ele>323.657</ele>
        <time>2012-08-31T09:39:58Z</time>
      </trkpt>
      <trkpt lat="47.2884" lon="4.9951">
        <ele>323.888</ele>
        <time>2012-08-31T09:40:09Z</time>
      </trkpt>
      <trkpt lat="47.28847" lon="4.995">
        <ele>324.187</ele>
        <time>2012-08-31T09:40:20Z</time>
      </trkpt>
      <trkpt lat="47.28857" lon="4.99502">
        <ele>324.214</ele>
        <time>2012-08-31T09:40:31Z</time>
      </trkpt>
      <trkpt lat="47.28867" lon="4.99503">
        <ele>324.552</ele>
        <time>2012-08-31T09:40:42Z</time>
      </trkpt>
      <trkpt lat="47.28875" lon="4.99503">
        <ele>324.822</ele>
        <time>2012-08-31T09:40:53Z</time>
      </trkpt>
      <trkpt lat="47.28885" lon="4.99503">
        <ele>326.357</ele>
        <time>2012-08-31T09:41:04Z</time>
      </trkpt>
      <trkpt lat="47.28893" lon="4.99505">
        <ele>326.954</ele>
        <time>2012-08-31T09:41:15Z</time>
      </trkpt>
      <trkpt lat="47.28905" lon="4.99512">
        <ele>328.004</ele>
        <time>2012-08-31T09:41:26Z</time>
      </trkpt>
      <trkpt lat="47.28915" lon="4.99512">
        <ele>328.368</ele>
        <time>2012-08-31T09:41:37Z</time>
      </trkpt>
      <trkpt lat="47.28927" lon="4.9951">
        <ele>326.366</ele>
        <time>2012-08-31T09:41:48Z</time>
      </trkpt>
      <trkpt lat="47.28938" lon="4.9951">
        <ele>326.054</ele>
        <time>2012-08-31T09:41:59Z</time>
      </trkpt>
      <trkpt lat="47.28952" lon="4.99508">
        <ele>324.852</ele>
        <time>2012-08-31T09:42:10Z</time>
      </trkpt>
      <trkpt lat="47.28963" lon="4.99507">
        <ele>324.704</ele>
        <time>2012-08-31T09:42:21Z</time>
      </trkpt>
      <trkpt lat="47.28968" lon="4.99505">
        <ele>323.8</ele>
        <time>2012-08-31T09:42:32Z</time>
      </trkpt>
      <trkpt lat="47.28968" lon="4.99505">
        <ele>323.793</ele>
        <time>2012-08-31T09:42:43Z</time>
      </trkpt>
      <trkpt lat="47.28973" lon="4.99497">
        <ele>323.894</ele>
        <time>2012-08-31T09:42:54Z</time>
      </trkpt>
      <trkpt lat="47.28978" lon="4.9949">
        <ele>324.01</ele>
        <time>2012-08-31T09:43:05Z</time>
      </trkpt>
      <trkpt lat="47.28983" lon="4.99485">
        <ele>326.254</ele>
        <time>2012-08-31T09:43:16Z</time>
      </trkpt>
      <trkpt lat="47.28985" lon="4.99477">
        <ele>325.941</ele>
        <time>2012-08-31T09:43:27Z</time>
      </trkpt>
      <trkpt lat="47.28987" lon="4.99465">
        <ele>326.306</ele>
        <time>2012-08-31T09:43:38Z</time>
      </trkpt>
      <trkpt lat="47.28992" lon="4.99462">
        <ele>326.801</ele>
        <time>2012-08-31T09:43:49Z</time>
      </trkpt>
      <trkpt lat="47.29003" lon="4.99453">
        <ele>328.014</ele>
        <time>2012-08-31T09:44:00Z</time>
      </trkpt>
      <trkpt lat="47.29015" lon="4.99443">
        <ele>330.274</ele>
        <time>2012-08-31T09:44:11Z</time>
      </trkpt>
      <trkpt lat="47.2902" lon="4.99428">
        <ele>331.175</ele>
        <time>2012-08-31T09:44:22Z</time>
      </trkpt>
      <trkpt lat="47.29028" lon="4.99422">
        <ele>332.36</ele>
        <time>2012-08-31T09:44:33Z</time>
      </trkpt>
      <trkpt lat="47.2904" lon="4.99415">
        <ele>332.822</ele>
        <time>2012-08-31T09:44:44Z</time>
      </trkpt>
      <trkpt lat="47.29048" lon="4.99408">
        <ele>333.509</ele>
        <time>2012-08-31T09:44:55Z</time>
      </trkpt>
      <trkpt lat="47.29057" lon="4.99398">
        <ele>335.539</ele>
        <time>2012-08-31T09:45:06Z</time>
      </trkpt>
      <trkpt lat="47.29062" lon="4.99388">
        <ele>336.388</ele>
        <time>2012-08-31T09:45:17Z</time>
      </trkpt>
      <trkpt lat="47.29068" lon="4.99388">
        <ele>337.544</ele>
        <time>2012-08-31T09:45:28Z</time>
      </trkpt>
      <trkpt lat="47.29072" lon="4.99387">
        <ele>337.487</ele>
        <time>2012-08-31T09:45:39Z</time>
      </trkpt>
      <trkpt lat="47.2908" lon="4.99388">
        <ele>338.128</ele>
        <time>2012-08-31T09:45:50Z</time>
      </trkpt>
      <trkpt lat="47.29095" lon="4.99392">
        <ele>336.642</ele>
        <time>2012-08-31T09:46:01Z</time>
      </trkpt>
      <trkpt lat="47.29107" lon="4.99398">
        <ele>335.868</ele>
        <time>2012-08-31T09:46:12Z</time>
      </trkpt>
      <trkpt lat="47.2912" lon="4.99403">
        <ele>333.482</ele>
        <time>2012-08-31T09:46:23Z</time>
      </trkpt>
      <trkpt lat="47.29132" lon="4.99412">
        <ele>332.068</ele>
        <time>2012-08-31T09:46:34Z</time>
      </trkpt>
      <trkpt lat="47.29143" lon="4.9942">
        <ele>331.645</ele>
        <time>2012-08-31T09:46:45Z</time>
      </trkpt>
      <trkpt lat="47.29155" lon="4.99428">
        <ele>330.571</ele>
        <time>2012-08-31T09:46:56Z</time>
      </trkpt>
      <trkpt lat="47.29162" lon="4.99432">
        <ele>329.427</ele>
        <time>2012-08-31T09:47:07Z</time>
      </trkpt>
      <trkpt lat="47.29163" lon="4.99432">
        <ele>329.939</ele>
        <time>2012-08-31T09:47:18Z</time>
      </trkpt>
      <trkpt lat="47.29165" lon="4.9943">
        <ele>329.811</ele>
        <time>2012-08-31T09:47:29Z</time>
      </trkpt>
      <trkpt lat="47.29168" lon="4.99428">
        <ele>329.308</ele>
        <time>2012-08-31T09:47:40Z</time>
      </trkpt>
      <trkpt lat="47.29177" lon="4.99427">
        <ele>329.866</ele>
        <time>2012-08-31T09:47:51Z</time>
      </trkpt>
      <trkpt lat="47.29182" lon="4.99422">
        <ele>331.748</ele>
        <time>2012-08-31T09:48:02Z</time>
      </trkpt>
      <trkpt lat="47.29188" lon="4.9942">
        <ele>332.974</ele>
        <time>2012-08-31T09:48:13Z</time>
      </trkpt>
      <trkpt lat="47.29197" lon="4.99422">
        <ele>337.59</ele>
        <time>2012-08-31T09:48:24Z</time>
      </trkpt>
      <trkpt lat="47.29202" lon="4.99425">
        <ele>339.136</ele>
        <time>2012-08-31T09:48:35Z</time>
      </trkpt>
      <trkpt lat="47.2921" lon="4.99433">
        <ele>341.785</ele>
        <time>2012-08-31T09:48:46Z</time>
      </trkpt>
      <trkpt lat="47.29217" lon="4.99443">
        <ele>341.144</ele>
        <time>2012-08-31T09:48:57Z</time>
      </trkpt>
      <trkpt lat="47.29232" lon="4.99455">
        <ele>338.043</ele>
        <time>2012-08-31T09:49:08Z</time>
      </trkpt>
      <trkpt lat="47.2925" lon="4.99462">
        <ele>334.476</ele>
        <time>2012-08-31T09:49:19Z</time>
      </trkpt>
      <trkpt lat="47.29263" lon="4.99465">
        <ele>333.081</ele>
        <time>2012-08-31T09:49:30Z</time>
      </trkpt>
      <trkpt lat="47.29278" lon="4.99472">
        <ele>332.125</ele>
        <time>2012-08-31T09:49:41Z</time>
      </trkpt>
      <trkpt lat="47.29292" lon="4.99477">
        <ele>330.779</ele>
        <time>2012-08-31T09:49:52Z</time>
      </trkpt>
      <trkpt lat="47.29305" lon="4.99482">
        <ele>330.582</ele>
        <time>2012-08-31T09:50:03Z</time>
      </trkpt>
      <trkpt lat="47.29318" lon="4.99487">
        <ele>330.219</ele>
        <time>2012-08-31T09:50:14Z</time>
      </trkpt>
      <trkpt lat="47.29328" lon="4.99488">
        <ele>330.104</ele>
        <time>2012-08-31T09:50:25Z</time>
      </trkpt>
      <trkpt lat="47.2934" lon="4.99488">
        <ele>329.856</ele>
        <time>2012-08-31T09:50:36Z</time>
      </trkpt>
      <trkpt lat="47.29347" lon="4.9949">
        <ele>329.68</ele>
        <time>2012-08-31T09:50:47Z</time>
      </trkpt>
      <trkpt lat="47.29355" lon="4.99497">
        <ele>329.925</ele>
        <time>2012-08-31T09:50:58Z</time>
      </trkpt>
      <trkpt lat="47.29365" lon="4.995">
        <ele>329.771</ele>
        <time>2012-08-31T09:51:09Z</time>
      </trkpt>
      <trkpt lat="47.2937" lon="4.99502">
        <ele>329.527</ele>
        <time>2012-08-31T09:51:20Z</time>
      </trkpt>
      <trkpt lat="47.29375" lon="4.99503">
        <ele>328.875</ele>
        <time>2012-08-31T09:51:31Z</time>
      </trkpt>
      <trkpt lat="47.2938" lon="4.99507">
        <ele>329.498</ele>
        <time>2012-08-31T09:51:42Z</time>
      </trkpt>
      <trkpt lat="47.29378" lon="4.99508">
        <ele>330.292</ele>
        <time>2012-08-31T09:51:53Z</time>
      </trkpt>
      <trkpt lat="47.29377" lon="4.99513">
        <ele>330.877</ele>
        <time>2012-08-31T09:52:04Z</time>
      </trkpt>
      <trkpt lat="47.29377" lon="4.99522">
        <ele>331.413</ele>
        <time>2012-08-31T09:52:15Z</time>
      </trkpt>
      <trkpt lat="47.29382" lon="4.99547">
        <ele>333.861</ele>
        <time>2012-08-31T09:52:26Z</time>
      </trkpt>
      <trkpt lat="47.29385" lon="4.99563">
        <ele>336.306</ele>
        <time>2012-08-31T09:52:37Z</time>
      </trkpt>
      <trkpt lat="47.29387" lon="4.99573">
        <ele>338.01</ele>
        <time>2012-08-31T09:52:48Z</time>
      </trkpt>
      <trkpt lat="47.29385" lon="4.99585">
        <ele>339.458</ele>
        <time>2012-08-31T09:52:59Z</time>
      </trkpt>
      <trkpt lat="47.29383" lon="4.996">
        <ele>341.714</ele>
        <time>2012-08-31T09:53:10Z</time>
      </trkpt>
      <trkpt lat="47.29383" lon="4.99612">
        <ele>342.205</ele>
        <time>2012-08-31T09:53:21Z</time>
      </trkpt>
      <trkpt lat="47.29383" lon="4.99623">
        <ele>343.094</ele>
        <time>2012-08-31T09:53:32Z</time>
      </trkpt>
      <trkpt lat="47.29387" lon="4.9964">
        <ele>342.648</ele>
        <time>2012-08-31T09:53:43Z</time>
      </trkpt>
      <trkpt lat="47.29387" lon="4.99657">
        <ele>340.559</ele>
        <time>2012-08-31T09:53:54Z</time>
      </trkpt>
      <trkpt lat="47.2939" lon="4.99675">
        <ele>339.272</ele>
        <time>2012-08-31T09:54:05Z</time>
      </trkpt>
      <trkpt lat="47.29392" lon="4.99687">
        <ele>340.044</ele>
        <time>2012-08-31T09:54:16Z</time>
      </trkpt>
      <trkpt lat="47.29392" lon="4.99703">
        <ele>338.952</ele>
        <time>2012-08-31T09:54:27Z</time>
      </trkpt>
      <trkpt lat="47.29395" lon="4.99715">
        <ele>337.758</ele>
        <time>2012-08-31T09:54:38Z</time>
      </trkpt>
      <trkpt lat="47.2941" lon="4.99735">
        <ele>327.596</ele>
        <time>2012-08-31T09:54:49Z</time>
      </trkpt>
      <trkpt lat="47.29418" lon="4.9975">
        <ele>324.98</ele>
        <time>2012-08-31T09:55:00Z</time>
      </trkpt>
      <trkpt lat="47.29433" lon="4.99772">
        <ele>323.249</ele>
        <time>2012-08-31T09:55:11Z</time>
      </trkpt>
      <trkpt lat="47.29447" lon="4.99788">
        <ele>322.262</ele>
        <time>2012-08-31T09:55:22Z</time>
      </trkpt>
      <trkpt lat="47.29453" lon="4.99797">
        <ele>322.521</ele>
        <time>2012-08-31T09:55:33Z</time>
      </trkpt>
      <trkpt lat="47.29457" lon="4.99807">
        <ele>323.07</ele>
        <time>2012-08-31T09:55:44Z</time>
      </trkpt>
      <trkpt lat="47.29458" lon="4.99808">
        <ele>323.065</ele>
        <time>2012-08-31T09:55:55Z</time>
      </trkpt>
      <trkpt lat="47.2946" lon="4.9981">
        <ele>322.954</ele>
        <time>2012-08-31T09:56:06Z</time>
      </trkpt>
      <trkpt lat="47.2946" lon="4.9981">
        <ele>323.048</ele>
        <time>2012-08-31T09:56:17Z</time>
      </trkpt>
      <trkpt lat="47.2946" lon="4.9981">
        <ele>323.048</ele>
        <time>2012-08-31T09:56:28Z</time>
      </trkpt>
      <trkpt lat="47.2946" lon="4.99812">
        <ele>322.682</ele>
        <time>2012-08-31T09:56:39Z</time>
      </trkpt>
      <trkpt lat="47.2946" lon="4.99812">
        <ele>322.682</ele>
        <time>2012-08-31T09:56:50Z</time>
      </trkpt>
      <trkpt lat="47.2946" lon="4.99812">
        <ele>322.682</ele>
        <time>2012-08-31T09:57:01Z</time>
      </trkpt>
      <trkpt lat="47.2946" lon="4.99812">
        <ele>322.855</ele>
        <time>2012-08-31T09:57:12Z</time>
      </trkpt>
      <trkpt lat="47.2946" lon="4.99812">
        <ele>322.855</ele>
        <time>2012-08-31T09:57:23Z</time>
      </trkpt>
      <trkpt lat="47.2946" lon="4.99815">
        <ele>324.484</ele>
        <time>2012-08-31T09:57:34Z</time>
      </trkpt>
      <trkpt lat="47.29467" lon="4.99825">
        <ele>324.013</ele>
        <time>2012-08-31T09:57:45Z</time>
      </trkpt>
      <trkpt lat="47.29478" lon="4.99835">
        <ele>320.109</ele>
        <time>2012-08-31T09:57:56Z</time>
      </trkpt>
      <trkpt lat="47.29488" lon="4.99843">
        <ele>317.95</ele>
        <time>2012-08-31T09:58:07Z</time>
      </trkpt>
      <trkpt lat="47.295" lon="4.99853">
        <ele>314.847</ele>
        <time>2012-08-31T09:58:18Z</time>
      </trkpt>
      <trkpt lat="47.29517" lon="4.99867">
        <ele>311.35</ele>
        <time>2012-08-31T09:58:29Z</time>
      </trkpt>
      <trkpt lat="47.2953" lon="4.99873">
        <ele>309.027</ele>
        <time>2012-08-31T09:58:40Z</time>
      </trkpt>
      <trkpt lat="47.29547" lon="4.99882">
        <ele>305.043</ele>
        <time>2012-08-31T09:58:51Z</time>
      </trkpt>
      <trkpt lat="47.29558" lon="4.99893">
        <ele>304.179</ele>
        <time>2012-08-31T09:59:02Z</time>
      </trkpt>
      <trkpt lat="47.29572" lon="4.99907">
        <ele>302.924</ele>
        <time>2012-08-31T09:59:13Z</time>
      </trkpt>
      <trkpt lat="47.29582" lon="4.99918">
        <ele>301.738</ele>
        <time>2012-08-31T09:59:24Z</time>
      </trkpt>
      <trkpt lat="47.2959" lon="4.9993">
        <ele>300.18</ele>
        <time>2012-08-31T09:59:35Z</time>
      </trkpt>
      <trkpt lat="47.29602" lon="4.99948">
        <ele>297.957</ele>
        <time>2012-08-31T09:59:46Z</time>
      </trkpt>
      <trkpt lat="47.2961" lon="4.99963">
        <ele>296.682</ele>
        <time>2012-08-31T09:59:57Z</time>
      </trkpt>
      <trkpt lat="47.2961" lon="4.99973">
        <ele>298.192</ele>
        <time>2012-08-31T10:00:08Z</time>
      </trkpt>
      <trkpt lat="47.29605" lon="4.99985">
        <ele>301.885</ele>
        <time>2012-08-31T10:00:19Z</time>
      </trkpt>
      <trkpt lat="47.29602" lon="5.00003">
        <ele>303.129</ele>
        <time>2012-08-31T10:00:30Z</time>
      </trkpt>
      <trkpt lat="47.29595" lon="5.00022">
        <ele>304.121</ele>
        <time>2012-08-31T10:00:41Z</time>
      </trkpt>
      <trkpt lat="47.2959" lon="5.00033">
        <ele>303.367</ele>
        <time>2012-08-31T10:00:52Z</time>
      </trkpt>
      <trkpt lat="47.2959" lon="5.0005">
        <ele>301.007</ele>
        <time>2012-08-31T10:01:03Z</time>
      </trkpt>
      <trkpt lat="47.29587" lon="5.00073">
        <ele>298.95</ele>
        <time>2012-08-31T10:01:14Z</time>
      </trkpt>
      <trkpt lat="47.29582" lon="5.00093">
        <ele>296.922</ele>
        <time>2012-08-31T10:01:25Z</time>
      </trkpt>
      <trkpt lat="47.29573" lon="5.0011">
        <ele>295.583</ele>
        <time>2012-08-31T10:01:36Z</time>
      </trkpt>
      <trkpt lat="47.29568" lon="5.00122">
        <ele>294.689</ele>
        <time>2012-08-31T10:01:47Z</time>
      </trkpt>
      <trkpt lat="47.29568" lon="5.00135">
        <ele>294.174</ele>
        <time>2012-08-31T10:01:58Z</time>
      </trkpt>
      <trkpt lat="47.2957" lon="5.00145">
        <ele>293.411</ele>
        <time>2012-08-31T10:02:09Z</time>
      </trkpt>
      <trkpt lat="47.29562" lon="5.00165">
        <ele>294.832</ele>
        <time>2012-08-31T10:02:20Z</time>
      </trkpt>
      <trkpt lat="47.29547" lon="5.00178">
        <ele>293.622</ele>
        <time>2012-08-31T10:02:31Z</time>
      </trkpt>
      <trkpt lat="47.29535" lon="5.0019">
        <ele>294.018</ele>
        <time>2012-08-31T10:02:42Z</time>
      </trkpt>
      <trkpt lat="47.29528" lon="5.00202">
        <ele>297.084</ele>
        <time>2012-08-31T10:02:53Z</time>
      </trkpt>
      <trkpt lat="47.29522" lon="5.00208">
        <ele>300.196</ele>
        <time>2012-08-31T10:03:04Z</time>
      </trkpt>
      <trkpt lat="47.29517" lon="5.00223">
        <ele>300.535</ele>
        <time>2012-08-31T10:03:15Z</time>
      </trkpt>
      <trkpt lat="47.29507" lon="5.00242">
        <ele>300.941</ele>
        <time>2012-08-31T10:03:26Z</time>
      </trkpt>
      <trkpt lat="47.29497" lon="5.00258">
        <ele>304.175</ele>
        <time>2012-08-31T10:03:37Z</time>
      </trkpt>
      <trkpt lat="47.2949" lon="5.00283">
        <ele>307.928</ele>
        <time>2012-08-31T10:03:48Z</time>
      </trkpt>
      <trkpt lat="47.29497" lon="5.00292">
        <ele>310.719</ele>
        <time>2012-08-31T10:03:59Z</time>
      </trkpt>
      <trkpt lat="47.29487" lon="5.00317">
        <ele>309.453</ele>
        <time>2012-08-31T10:04:10Z</time>
      </trkpt>
      <trkpt lat="47.29473" lon="5.00335">
        <ele>300.993</ele>
        <time>2012-08-31T10:04:21Z</time>
      </trkpt>
      <trkpt lat="47.29462" lon="5.00338">
        <ele>295.438</ele>
        <time>2012-08-31T10:04:32Z</time>
      </trkpt>
      <trkpt lat="47.29453" lon="5.00345">
        <ele>294.437</ele>
        <time>2012-08-31T10:04:43Z</time>
      </trkpt>
      <trkpt lat="47.29443" lon="5.00347">
        <ele>290.216</ele>
        <time>2012-08-31T10:04:54Z</time>
      </trkpt>
      <trkpt lat="47.29437" lon="5.0035">
        <ele>285.881</ele>
        <time>2012-08-31T10:05:05Z</time>
      </trkpt>
      <trkpt lat="47.29428" lon="5.00353">
        <ele>286.769</ele>
        <time>2012-08-31T10:05:16Z</time>
      </trkpt>
      <trkpt lat="47.29417" lon="5.0035">
        <ele>289.713</ele>
        <time>2012-08-31T10:05:27Z</time>
      </trkpt>
      <trkpt lat="47.29408" lon="5.0035">
        <ele>291.46</ele>
        <time>2012-08-31T10:05:38Z</time>
      </trkpt>
      <trkpt lat="47.29395" lon="5.0035">
        <ele>290.842</ele>
        <time>2012-08-31T10:05:49Z</time>
      </trkpt>
      <trkpt lat="47.29382" lon="5.0035">
        <ele>291.586</ele>
        <time>2012-08-31T10:06:00Z</time>
      </trkpt>
      <trkpt lat="47.29367" lon="5.00347">
        <ele>289.868</ele>
        <time>2012-08-31T10:06:11Z</time>
      </trkpt>
      <trkpt lat="47.29353" lon="5.00345">
        <ele>289.744</ele>
        <time>2012-08-31T10:06:22Z</time>
      </trkpt>
      <trkpt lat="47.29343" lon="5.00358">
        <ele>291.902</ele>
        <time>2012-08-31T10:06:33Z</time>
      </trkpt>
      <trkpt lat="47.29332" lon="5.00358">
        <ele>291.383</ele>
        <time>2012-08-31T10:06:44Z</time>
      </trkpt>
      <trkpt lat="47.29317" lon="5.0036">
        <ele>290.764</ele>
        <time>2012-08-31T10:06:55Z</time>
      </trkpt>
      <trkpt lat="47.29302" lon="5.00358">
        <ele>293.076</ele>
        <time>2012-08-31T10:07:06Z</time>
      </trkpt>
      <trkpt lat="47.29295" lon="5.00375">
        <ele>295.236</ele>
        <time>2012-08-31T10:07:17Z</time>
      </trkpt>
      <trkpt lat="47.29295" lon="5.00397">
        <ele>297.25</ele>
        <time>2012-08-31T10:07:28Z</time>
      </trkpt>
      <trkpt lat="47.29288" lon="5.00413">
        <ele>302.378</ele>
        <time>2012-08-31T10:07:39Z</time>
      </trkpt>
      <trkpt lat="47.29282" lon="5.00438">
        <ele>306.247</ele>
        <time>2012-08-31T10:07:50Z</time>
      </trkpt>
      <trkpt lat="47.2928" lon="5.00452">
        <ele>310.92</ele>
        <time>2012-08-31T10:08:01Z</time>
      </trkpt>
      <trkpt lat="47.29277" lon="5.00467">
        <ele>313.972</ele>
        <time>2012-08-31T10:08:12Z</time>
      </trkpt>
      <trkpt lat="47.29272" lon="5.0049">
        <ele>313.562</ele>
        <time>2012-08-31T10:08:23Z</time>
      </trkpt>
      <trkpt lat="47.29257" lon="5.00498">
        <ele>316.648</ele>
        <time>2012-08-31T10:08:34Z</time>
      </trkpt>
      <trkpt lat="47.29245" lon="5.00505">
        <ele>319.414</ele>
        <time>2012-08-31T10:08:45Z</time>
      </trkpt>
      <trkpt lat="47.2924" lon="5.0052">
        <ele>325.786</ele>
        <time>2012-08-31T10:08:56Z</time>
      </trkpt>
      <trkpt lat="47.29232" lon="5.0054">
        <ele>333.169</ele>
        <time>2012-08-31T10:09:07Z</time>
      </trkpt>
      <trkpt lat="47.29225" lon="5.00555">
        <ele>333.27</ele>
        <time>2012-08-31T10:09:18Z</time>
      </trkpt>
      <trkpt lat="47.29225" lon="5.0057">
        <ele>330.957</ele>
        <time>2012-08-31T10:09:29Z</time>
      </trkpt>
      <trkpt lat="47.2923" lon="5.00578">
        <ele>324.384</ele>
        <time>2012-08-31T10:09:40Z</time>
      </trkpt>
    </trkseg>
  </trk>
</gpx>